<?xml version="1.0" encoding="UTF-8" standalone="no" ?>
<gpx xmlns="http://www.topografix.com/GPX/1/1" xmlns:xsi="http://www.w3.org/2001/XMLSchema-instance" xsi:schemaLocation="http://www.topografix.com/GPX/1/1 http://www.topografix.com/GPX/1/1/gpx.xsd" version="1.1" creator="VisuGPX - https://www.visugpx.com">
  <metadata>
    <name>le menhir de peyregrosse départ st laurent sous coiron</name>
  </metadata>
  <wpt lat="44.64402" lon="4.47812">
    <ele>468.6</ele>
    <name><![CDATA[depart]]></name>
  </wpt>
  <wpt lat="44.64475" lon="4.47646">
    <ele>454.4</ele>
  </wpt>
  <wpt lat="44.64574" lon="4.47064">
    <ele>473.2</ele>
    <name><![CDATA[dolmen du deves de serre]]></name>
    <type><![CDATA[patrimoine_rural]]></type>
  </wpt>
  <wpt lat="44.64799" lon="4.46842">
    <ele>466</ele>
  </wpt>
  <wpt lat="44.6507" lon="4.46981">
    <ele>486.5</ele>
  </wpt>
  <wpt lat="44.65049" lon="4.47025">
    <ele>493.5</ele>
  </wpt>
  <wpt lat="44.65276" lon="4.47171">
    <ele>504.3</ele>
  </wpt>
  <wpt lat="44.65807" lon="4.47408">
    <ele>528</ele>
    <name><![CDATA[menhir de peyregrosse]]></name>
    <type><![CDATA[patrimoine_rural]]></type>
  </wpt>
  <wpt lat="44.65858" lon="4.47057">
    <ele>444.1</ele>
  </wpt>
  <wpt lat="44.66082" lon="4.47045">
    <ele>443.7</ele>
    <name><![CDATA[ruisseau de louyre]]></name>
    <type><![CDATA[water]]></type>
  </wpt>
  <wpt lat="44.66301" lon="4.47237">
    <ele>458</ele>
  </wpt>
  <wpt lat="44.66505" lon="4.47299">
    <ele>465.6</ele>
  </wpt>
  <wpt lat="44.6649" lon="4.47127">
    <ele>510</ele>
    <name><![CDATA[louyre ]]></name>
    <type><![CDATA[ville]]></type>
  </wpt>
  <wpt lat="44.66399" lon="4.47008">
    <ele>506.4</ele>
  </wpt>
  <wpt lat="44.6625" lon="4.46698">
    <ele>540.8</ele>
  </wpt>
  <wpt lat="44.65987" lon="4.46545">
    <ele>548.7</ele>
  </wpt>
  <wpt lat="44.6571" lon="4.46383">
    <ele>543.9</ele>
  </wpt>
  <wpt lat="44.65366" lon="4.46389">
    <ele>505.4</ele>
  </wpt>
  <wpt lat="44.65109" lon="4.46287">
    <ele>475.4</ele>
  </wpt>
  <wpt lat="44.64893" lon="4.46081">
    <ele>470.8</ele>
  </wpt>
  <wpt lat="44.64665" lon="4.46119">
    <ele>471.6</ele>
  </wpt>
  <wpt lat="44.64522" lon="4.46112">
    <ele>471.2</ele>
  </wpt>
  <wpt lat="44.64508" lon="4.46007">
    <ele>485.9</ele>
  </wpt>
  <wpt lat="44.64543" lon="4.4572">
    <ele>504.6</ele>
    <name><![CDATA[ruisseau]]></name>
  </wpt>
  <wpt lat="44.64383" lon="4.45754">
    <ele>501.1</ele>
  </wpt>
  <wpt lat="44.64189" lon="4.45888">
    <ele>491.3</ele>
  </wpt>
  <wpt lat="44.63997" lon="4.45636">
    <ele>482.9</ele>
  </wpt>
  <wpt lat="44.64002" lon="4.45131">
    <ele>459</ele>
  </wpt>
  <wpt lat="44.63845" lon="4.45415">
    <ele>444.4</ele>
  </wpt>
  <wpt lat="44.63679" lon="4.45342">
    <ele>432.4</ele>
  </wpt>
  <wpt lat="44.63595" lon="4.45474">
    <ele>436.6</ele>
  </wpt>
  <wpt lat="44.63332" lon="4.45331">
    <ele>413.9</ele>
  </wpt>
  <wpt lat="44.63084" lon="4.45315">
    <ele>397.3</ele>
  </wpt>
  <wpt lat="44.62876" lon="4.45428">
    <ele>371.1</ele>
  </wpt>
  <wpt lat="44.62927" lon="4.4572">
    <ele>353.3</ele>
  </wpt>
  <wpt lat="44.63216" lon="4.45957">
    <ele>362.2</ele>
  </wpt>
  <wpt lat="44.63426" lon="4.46158">
    <ele>335.1</ele>
  </wpt>
  <wpt lat="44.63595" lon="4.4622">
    <ele>343.3</ele>
  </wpt>
  <wpt lat="44.63435" lon="4.46297">
    <ele>367.5</ele>
  </wpt>
  <wpt lat="44.63305" lon="4.46738">
    <ele>378.4</ele>
    <name><![CDATA[sévenier]]></name>
    <type><![CDATA[ville]]></type>
  </wpt>
  <wpt lat="44.63192" lon="4.46888">
    <ele>367.7</ele>
  </wpt>
  <wpt lat="44.6339" lon="4.47128">
    <ele>386.1</ele>
  </wpt>
  <wpt lat="44.63725" lon="4.47291">
    <ele>412.6</ele>
  </wpt>
  <wpt lat="44.63815" lon="4.4747">
    <ele>431.5</ele>
  </wpt>
  <wpt lat="44.64396" lon="4.47757">
    <ele>462</ele>
    <name><![CDATA[arriveé]]></name>
  </wpt>
  <trk>
    <name><![CDATA[12442878-peyregrosse]]></name>
    <trkseg>
      <trkpt lat="44.64413" lon="4.47773">
        <ele>462</ele>
        <time>2021-01-17T11:01:56Z</time>
      </trkpt>
      <trkpt lat="44.64403" lon="4.4777">
        <ele>463</ele>
        <time>2021-01-17T11:02:10Z</time>
      </trkpt>
      <trkpt lat="44.64403" lon="4.47768">
        <ele>463</ele>
        <time>2021-01-17T11:02:12Z</time>
      </trkpt>
      <trkpt lat="44.64398" lon="4.47784">
        <ele>465</ele>
        <time>2021-01-17T11:02:28Z</time>
      </trkpt>
      <trkpt lat="44.64408" lon="4.47781">
        <ele>464</ele>
        <time>2021-01-17T11:02:42Z</time>
      </trkpt>
      <trkpt lat="44.64417" lon="4.47774">
        <ele>462</ele>
        <time>2021-01-17T11:02:56Z</time>
      </trkpt>
      <trkpt lat="44.64412" lon="4.47777">
        <ele>463</ele>
        <time>2021-01-17T11:03:03Z</time>
      </trkpt>
      <trkpt lat="44.64401" lon="4.47776">
        <ele>464</ele>
        <time>2021-01-17T11:03:17Z</time>
      </trkpt>
      <trkpt lat="44.64403" lon="4.47774">
        <ele>463</ele>
        <time>2021-01-17T11:03:21Z</time>
      </trkpt>
      <trkpt lat="44.64401" lon="4.47773">
        <ele>464</ele>
        <time>2021-01-17T11:03:24Z</time>
      </trkpt>
      <trkpt lat="44.64403" lon="4.47776">
        <ele>464</ele>
        <time>2021-01-17T11:03:27Z</time>
      </trkpt>
      <trkpt lat="44.64417" lon="4.47776">
        <ele>462</ele>
        <time>2021-01-17T11:03:46Z</time>
      </trkpt>
      <trkpt lat="44.64435" lon="4.47785">
        <ele>463</ele>
        <time>2021-01-17T11:04:12Z</time>
      </trkpt>
      <trkpt lat="44.6446" lon="4.47807">
        <ele>465</ele>
        <time>2021-01-17T11:04:51Z</time>
      </trkpt>
      <trkpt lat="44.64468" lon="4.47804">
        <ele>465</ele>
        <time>2021-01-17T11:05:02Z</time>
      </trkpt>
      <trkpt lat="44.64476" lon="4.47764">
        <ele>461</ele>
        <time>2021-01-17T11:05:42Z</time>
      </trkpt>
      <trkpt lat="44.64488" lon="4.47745">
        <ele>460</ele>
        <time>2021-01-17T11:06:06Z</time>
      </trkpt>
      <trkpt lat="44.64501" lon="4.47716">
        <ele>460</ele>
        <time>2021-01-17T11:06:38Z</time>
      </trkpt>
      <trkpt lat="44.64513" lon="4.47711">
        <ele>461</ele>
        <time>2021-01-17T11:06:55Z</time>
      </trkpt>
      <trkpt lat="44.64551" lon="4.47682">
        <ele>463</ele>
        <time>2021-01-17T11:07:53Z</time>
      </trkpt>
      <trkpt lat="44.6455" lon="4.47679">
        <ele>462</ele>
        <time>2021-01-17T11:07:56Z</time>
      </trkpt>
      <trkpt lat="44.6456" lon="4.47659">
        <ele>462</ele>
        <time>2021-01-17T11:08:19Z</time>
      </trkpt>
      <trkpt lat="44.6456" lon="4.47655">
        <ele>461</ele>
        <time>2021-01-17T11:08:23Z</time>
      </trkpt>
      <trkpt lat="44.64557" lon="4.47652">
        <ele>461</ele>
        <time>2021-01-17T11:08:28Z</time>
      </trkpt>
      <trkpt lat="44.64544" lon="4.47645">
        <ele>459</ele>
        <time>2021-01-17T11:08:46Z</time>
      </trkpt>
      <trkpt lat="44.64506" lon="4.47651">
        <ele>457</ele>
        <time>2021-01-17T11:09:37Z</time>
      </trkpt>
      <trkpt lat="44.64491" lon="4.47657">
        <ele>457</ele>
        <time>2021-01-17T11:09:58Z</time>
      </trkpt>
      <trkpt lat="44.6449" lon="4.47646">
        <ele>456</ele>
        <time>2021-01-17T11:10:09Z</time>
      </trkpt>
      <trkpt lat="44.6451" lon="4.47628">
        <ele>455</ele>
        <time>2021-01-17T11:10:40Z</time>
      </trkpt>
      <trkpt lat="44.64526" lon="4.4762">
        <ele>456</ele>
        <time>2021-01-17T11:11:03Z</time>
      </trkpt>
      <trkpt lat="44.64575" lon="4.47578">
        <ele>454</ele>
        <time>2021-01-17T11:12:20Z</time>
      </trkpt>
      <trkpt lat="44.64587" lon="4.47561">
        <ele>453</ele>
        <time>2021-01-17T11:12:42Z</time>
      </trkpt>
      <trkpt lat="44.64595" lon="4.47542">
        <ele>452</ele>
        <time>2021-01-17T11:13:03Z</time>
      </trkpt>
      <trkpt lat="44.64602" lon="4.47535">
        <ele>451</ele>
        <time>2021-01-17T11:13:15Z</time>
      </trkpt>
      <trkpt lat="44.64617" lon="4.4753">
        <ele>452</ele>
        <time>2021-01-17T11:13:35Z</time>
      </trkpt>
      <trkpt lat="44.64625" lon="4.47524">
        <ele>452</ele>
        <time>2021-01-17T11:13:47Z</time>
      </trkpt>
      <trkpt lat="44.64641" lon="4.47504">
        <ele>450</ele>
        <time>2021-01-17T11:14:16Z</time>
      </trkpt>
      <trkpt lat="44.64656" lon="4.47495">
        <ele>450</ele>
        <time>2021-01-17T11:14:38Z</time>
      </trkpt>
      <trkpt lat="44.64663" lon="4.47497">
        <ele>451</ele>
        <time>2021-01-17T11:14:47Z</time>
      </trkpt>
      <trkpt lat="44.64705" lon="4.47521">
        <ele>453</ele>
        <time>2021-01-17T11:15:48Z</time>
      </trkpt>
      <trkpt lat="44.64722" lon="4.47524">
        <ele>454</ele>
        <time>2021-01-17T11:16:11Z</time>
      </trkpt>
      <trkpt lat="44.64767" lon="4.47493">
        <ele>450</ele>
        <time>2021-01-17T11:17:17Z</time>
      </trkpt>
      <trkpt lat="44.64783" lon="4.47476">
        <ele>451</ele>
        <time>2021-01-17T11:17:44Z</time>
      </trkpt>
      <trkpt lat="44.64786" lon="4.47462">
        <ele>451</ele>
        <time>2021-01-17T11:17:58Z</time>
      </trkpt>
      <trkpt lat="44.64781" lon="4.47436">
        <ele>451</ele>
        <time>2021-01-17T11:18:24Z</time>
      </trkpt>
      <trkpt lat="44.64775" lon="4.47421">
        <ele>451</ele>
        <time>2021-01-17T11:18:40Z</time>
      </trkpt>
      <trkpt lat="44.64767" lon="4.47411">
        <ele>452</ele>
        <time>2021-01-17T11:18:54Z</time>
      </trkpt>
      <trkpt lat="44.64751" lon="4.47407">
        <ele>453</ele>
        <time>2021-01-17T11:19:16Z</time>
      </trkpt>
      <trkpt lat="44.64733" lon="4.47398">
        <ele>453</ele>
        <time>2021-01-17T11:19:42Z</time>
      </trkpt>
      <trkpt lat="44.64655" lon="4.47352">
        <ele>453</ele>
        <time>2021-01-17T11:21:34Z</time>
      </trkpt>
      <trkpt lat="44.64621" lon="4.47312">
        <ele>452</ele>
        <time>2021-01-17T11:22:34Z</time>
      </trkpt>
      <trkpt lat="44.64612" lon="4.47296">
        <ele>453</ele>
        <time>2021-01-17T11:22:53Z</time>
      </trkpt>
      <trkpt lat="44.64609" lon="4.47284">
        <ele>454</ele>
        <time>2021-01-17T11:23:05Z</time>
      </trkpt>
      <trkpt lat="44.64607" lon="4.47261">
        <ele>457</ele>
        <time>2021-01-17T11:23:27Z</time>
      </trkpt>
      <trkpt lat="44.6461" lon="4.47246">
        <ele>460</ele>
        <time>2021-01-17T11:23:42Z</time>
      </trkpt>
      <trkpt lat="44.64619" lon="4.47253">
        <ele>461</ele>
        <time>2021-01-17T11:23:56Z</time>
      </trkpt>
      <trkpt lat="44.64633" lon="4.47257">
        <ele>462</ele>
        <time>2021-01-17T11:24:15Z</time>
      </trkpt>
      <trkpt lat="44.64659" lon="4.47259">
        <ele>466</ele>
        <time>2021-01-17T11:24:49Z</time>
      </trkpt>
      <trkpt lat="44.64684" lon="4.47264">
        <ele>469</ele>
        <time>2021-01-17T11:25:23Z</time>
      </trkpt>
      <trkpt lat="44.64713" lon="4.47277">
        <ele>470</ele>
        <time>2021-01-17T11:26:04Z</time>
      </trkpt>
      <trkpt lat="44.64742" lon="4.47282">
        <ele>473</ele>
        <time>2021-01-17T11:26:43Z</time>
      </trkpt>
      <trkpt lat="44.64753" lon="4.47276">
        <ele>475</ele>
        <time>2021-01-17T11:26:58Z</time>
      </trkpt>
      <trkpt lat="44.64753" lon="4.47274">
        <ele>475</ele>
        <time>2021-01-17T11:27:00Z</time>
      </trkpt>
      <trkpt lat="44.64748" lon="4.47255">
        <ele>478</ele>
        <time>2021-01-17T11:27:20Z</time>
      </trkpt>
      <trkpt lat="44.64738" lon="4.47235">
        <ele>479</ele>
        <time>2021-01-17T11:27:43Z</time>
      </trkpt>
      <trkpt lat="44.64712" lon="4.47197">
        <ele>480</ele>
        <time>2021-01-17T11:28:33Z</time>
      </trkpt>
      <trkpt lat="44.64682" lon="4.47177">
        <ele>479</ele>
        <time>2021-01-17T11:29:17Z</time>
      </trkpt>
      <trkpt lat="44.64656" lon="4.47147">
        <ele>478</ele>
        <time>2021-01-17T11:30:02Z</time>
      </trkpt>
      <trkpt lat="44.64638" lon="4.4713">
        <ele>476</ele>
        <time>2021-01-17T11:30:31Z</time>
      </trkpt>
      <trkpt lat="44.64628" lon="4.47102">
        <ele>477</ele>
        <time>2021-01-17T11:31:01Z</time>
      </trkpt>
      <trkpt lat="44.64631" lon="4.47066">
        <ele>478</ele>
        <time>2021-01-17T11:31:35Z</time>
      </trkpt>
      <trkpt lat="44.64622" lon="4.47057">
        <ele>477</ele>
        <time>2021-01-17T11:31:50Z</time>
      </trkpt>
      <trkpt lat="44.64567" lon="4.47048">
        <ele>473</ele>
        <time>2021-01-17T11:33:04Z</time>
      </trkpt>
      <trkpt lat="44.64558" lon="4.47056">
        <ele>472</ele>
        <time>2021-01-17T11:33:18Z</time>
      </trkpt>
      <trkpt lat="44.64563" lon="4.47054">
        <ele>472</ele>
        <time>2021-01-17T11:33:25Z</time>
      </trkpt>
      <trkpt lat="44.6456" lon="4.47046">
        <ele>472</ele>
        <time>2021-01-17T11:33:33Z</time>
      </trkpt>
      <trkpt lat="44.64555" lon="4.47048">
        <ele>472</ele>
        <time>2021-01-17T11:33:40Z</time>
      </trkpt>
      <trkpt lat="44.64561" lon="4.47046">
        <ele>472</ele>
        <time>2021-01-17T11:33:49Z</time>
      </trkpt>
      <trkpt lat="44.64628" lon="4.4706">
        <ele>478</ele>
        <time>2021-01-17T11:35:19Z</time>
      </trkpt>
      <trkpt lat="44.6466" lon="4.47006">
        <ele>477</ele>
        <time>2021-01-17T11:36:26Z</time>
      </trkpt>
      <trkpt lat="44.64678" lon="4.46984">
        <ele>476</ele>
        <time>2021-01-17T11:36:58Z</time>
      </trkpt>
      <trkpt lat="44.64691" lon="4.46972">
        <ele>475</ele>
        <time>2021-01-17T11:37:18Z</time>
      </trkpt>
      <trkpt lat="44.64701" lon="4.46973">
        <ele>475</ele>
        <time>2021-01-17T11:37:32Z</time>
      </trkpt>
      <trkpt lat="44.64704" lon="4.4697">
        <ele>475</ele>
        <time>2021-01-17T11:37:37Z</time>
      </trkpt>
      <trkpt lat="44.6471" lon="4.46971">
        <ele>475</ele>
        <time>2021-01-17T11:37:45Z</time>
      </trkpt>
      <trkpt lat="44.64725" lon="4.46958">
        <ele>474</ele>
        <time>2021-01-17T11:38:08Z</time>
      </trkpt>
      <trkpt lat="44.64753" lon="4.46897">
        <ele>470</ele>
        <time>2021-01-17T11:39:17Z</time>
      </trkpt>
      <trkpt lat="44.64779" lon="4.46874">
        <ele>468</ele>
        <time>2021-01-17T11:39:58Z</time>
      </trkpt>
      <trkpt lat="44.64796" lon="4.46846">
        <ele>466</ele>
        <time>2021-01-17T11:40:33Z</time>
      </trkpt>
      <trkpt lat="44.64799" lon="4.46845">
        <ele>466</ele>
        <time>2021-01-17T11:40:37Z</time>
      </trkpt>
      <trkpt lat="44.64812" lon="4.46853">
        <ele>467</ele>
        <time>2021-01-17T11:40:56Z</time>
      </trkpt>
      <trkpt lat="44.64843" lon="4.46864">
        <ele>469</ele>
        <time>2021-01-17T11:41:39Z</time>
      </trkpt>
      <trkpt lat="44.64883" lon="4.46855">
        <ele>471</ele>
        <time>2021-01-17T11:42:33Z</time>
      </trkpt>
      <trkpt lat="44.64898" lon="4.46856">
        <ele>472</ele>
        <time>2021-01-17T11:42:53Z</time>
      </trkpt>
      <trkpt lat="44.64906" lon="4.46875">
        <ele>474</ele>
        <time>2021-01-17T11:43:14Z</time>
      </trkpt>
      <trkpt lat="44.64913" lon="4.46883">
        <ele>475</ele>
        <time>2021-01-17T11:43:26Z</time>
      </trkpt>
      <trkpt lat="44.64952" lon="4.46913">
        <ele>478</ele>
        <time>2021-01-17T11:44:25Z</time>
      </trkpt>
      <trkpt lat="44.64965" lon="4.46933">
        <ele>480</ele>
        <time>2021-01-17T11:44:51Z</time>
      </trkpt>
      <trkpt lat="44.64974" lon="4.46941">
        <ele>481</ele>
        <time>2021-01-17T11:45:05Z</time>
      </trkpt>
      <trkpt lat="44.64981" lon="4.46942">
        <ele>481</ele>
        <time>2021-01-17T11:45:15Z</time>
      </trkpt>
      <trkpt lat="44.65016" lon="4.46962">
        <ele>484</ele>
        <time>2021-01-17T11:46:05Z</time>
      </trkpt>
      <trkpt lat="44.65066" lon="4.46981">
        <ele>487</ele>
        <time>2021-01-17T11:47:14Z</time>
      </trkpt>
      <trkpt lat="44.65066" lon="4.46993">
        <ele>488</ele>
        <time>2021-01-17T11:47:25Z</time>
      </trkpt>
      <trkpt lat="44.65052" lon="4.47">
        <ele>489</ele>
        <time>2021-01-17T11:47:45Z</time>
      </trkpt>
      <trkpt lat="44.65048" lon="4.47009">
        <ele>491</ele>
        <time>2021-01-17T11:47:55Z</time>
      </trkpt>
      <trkpt lat="44.65048" lon="4.4702">
        <ele>493</ele>
        <time>2021-01-17T11:48:06Z</time>
      </trkpt>
      <trkpt lat="44.65053" lon="4.47025">
        <ele>494</ele>
        <time>2021-01-17T11:48:14Z</time>
      </trkpt>
      <trkpt lat="44.65083" lon="4.47033">
        <ele>495</ele>
        <time>2021-01-17T11:48:55Z</time>
      </trkpt>
      <trkpt lat="44.65103" lon="4.47043">
        <ele>495</ele>
        <time>2021-01-17T11:49:23Z</time>
      </trkpt>
      <trkpt lat="44.65138" lon="4.47067">
        <ele>497</ele>
        <time>2021-01-17T11:50:15Z</time>
      </trkpt>
      <trkpt lat="44.6516" lon="4.47087">
        <ele>499</ele>
        <time>2021-01-17T11:50:50Z</time>
      </trkpt>
      <trkpt lat="44.65181" lon="4.47097">
        <ele>499</ele>
        <time>2021-01-17T11:51:20Z</time>
      </trkpt>
      <trkpt lat="44.652" lon="4.47112">
        <ele>499</ele>
        <time>2021-01-17T11:51:49Z</time>
      </trkpt>
      <trkpt lat="44.65199" lon="4.4711">
        <ele>499</ele>
        <time>2021-01-17T11:51:51Z</time>
      </trkpt>
      <trkpt lat="44.65232" lon="4.47128">
        <ele>499</ele>
        <time>2021-01-17T11:52:38Z</time>
      </trkpt>
      <trkpt lat="44.65251" lon="4.47141">
        <ele>500</ele>
        <time>2021-01-17T11:53:06Z</time>
      </trkpt>
      <trkpt lat="44.65289" lon="4.47175">
        <ele>503</ele>
        <time>2021-01-17T11:54:07Z</time>
      </trkpt>
      <trkpt lat="44.65296" lon="4.47177">
        <ele>503</ele>
        <time>2021-01-17T11:54:16Z</time>
      </trkpt>
      <trkpt lat="44.65301" lon="4.47182">
        <ele>503</ele>
        <time>2021-01-17T11:54:24Z</time>
      </trkpt>
      <trkpt lat="44.65322" lon="4.47193">
        <ele>502</ele>
        <time>2021-01-17T11:54:54Z</time>
      </trkpt>
      <trkpt lat="44.65368" lon="4.47235">
        <ele>506</ele>
        <time>2021-01-17T11:56:07Z</time>
      </trkpt>
      <trkpt lat="44.65371" lon="4.4724">
        <ele>506</ele>
        <time>2021-01-17T11:56:14Z</time>
      </trkpt>
      <trkpt lat="44.65387" lon="4.4725">
        <ele>507</ele>
        <time>2021-01-17T11:56:37Z</time>
      </trkpt>
      <trkpt lat="44.65411" lon="4.47259">
        <ele>507</ele>
        <time>2021-01-17T11:57:10Z</time>
      </trkpt>
      <trkpt lat="44.65423" lon="4.4726">
        <ele>506</ele>
        <time>2021-01-17T11:57:26Z</time>
      </trkpt>
      <trkpt lat="44.65449" lon="4.47278">
        <ele>508</ele>
        <time>2021-01-17T11:58:05Z</time>
      </trkpt>
      <trkpt lat="44.65464" lon="4.47283">
        <ele>508</ele>
        <time>2021-01-17T11:58:25Z</time>
      </trkpt>
      <trkpt lat="44.65483" lon="4.47285">
        <ele>507</ele>
        <time>2021-01-17T11:58:51Z</time>
      </trkpt>
      <trkpt lat="44.65516" lon="4.47295">
        <ele>508</ele>
        <time>2021-01-17T11:59:36Z</time>
      </trkpt>
      <trkpt lat="44.65535" lon="4.47296">
        <ele>508</ele>
        <time>2021-01-17T12:00:01Z</time>
      </trkpt>
      <trkpt lat="44.65556" lon="4.47304">
        <ele>508</ele>
        <time>2021-01-17T12:00:30Z</time>
      </trkpt>
      <trkpt lat="44.65584" lon="4.47308">
        <ele>508</ele>
        <time>2021-01-17T12:01:08Z</time>
      </trkpt>
      <trkpt lat="44.65614" lon="4.47321">
        <ele>511</ele>
        <time>2021-01-17T12:01:50Z</time>
      </trkpt>
      <trkpt lat="44.65658" lon="4.47334">
        <ele>515</ele>
        <time>2021-01-17T12:02:50Z</time>
      </trkpt>
      <trkpt lat="44.65675" lon="4.47337">
        <ele>516</ele>
        <time>2021-01-17T12:03:13Z</time>
      </trkpt>
      <trkpt lat="44.65688" lon="4.47336">
        <ele>517</ele>
        <time>2021-01-17T12:03:30Z</time>
      </trkpt>
      <trkpt lat="44.65703" lon="4.47329">
        <ele>517</ele>
        <time>2021-01-17T12:03:51Z</time>
      </trkpt>
      <trkpt lat="44.65723" lon="4.47325">
        <ele>517</ele>
        <time>2021-01-17T12:04:18Z</time>
      </trkpt>
      <trkpt lat="44.65736" lon="4.47325">
        <ele>518</ele>
        <time>2021-01-17T12:04:35Z</time>
      </trkpt>
      <trkpt lat="44.65768" lon="4.47331">
        <ele>521</ele>
        <time>2021-01-17T12:05:18Z</time>
      </trkpt>
      <trkpt lat="44.65781" lon="4.47329">
        <ele>522</ele>
        <time>2021-01-17T12:05:36Z</time>
      </trkpt>
      <trkpt lat="44.65807" lon="4.47336">
        <ele>525</ele>
        <time>2021-01-17T12:06:11Z</time>
      </trkpt>
      <trkpt lat="44.65811" lon="4.47342">
        <ele>525</ele>
        <time>2021-01-17T12:06:19Z</time>
      </trkpt>
      <trkpt lat="44.65827" lon="4.47351">
        <ele>527</ele>
        <time>2021-01-17T12:06:42Z</time>
      </trkpt>
      <trkpt lat="44.65828" lon="4.4736">
        <ele>527</ele>
        <time>2021-01-17T12:06:51Z</time>
      </trkpt>
      <trkpt lat="44.65815" lon="4.47375">
        <ele>527</ele>
        <time>2021-01-17T12:07:13Z</time>
      </trkpt>
      <trkpt lat="44.65813" lon="4.47382">
        <ele>527</ele>
        <time>2021-01-17T12:07:20Z</time>
      </trkpt>
      <trkpt lat="44.658" lon="4.47398">
        <ele>527</ele>
        <time>2021-01-17T12:07:43Z</time>
      </trkpt>
      <trkpt lat="44.65797" lon="4.47396">
        <ele>527</ele>
        <time>2021-01-17T12:07:48Z</time>
      </trkpt>
      <trkpt lat="44.6581" lon="4.47387">
        <ele>527</ele>
        <time>2021-01-17T12:08:07Z</time>
      </trkpt>
      <trkpt lat="44.65813" lon="4.47373">
        <ele>527</ele>
        <time>2021-01-17T12:08:21Z</time>
      </trkpt>
      <trkpt lat="44.65828" lon="4.47354">
        <ele>527</ele>
        <time>2021-01-17T12:08:48Z</time>
      </trkpt>
      <trkpt lat="44.6582" lon="4.47333">
        <ele>525</ele>
        <time>2021-01-17T12:09:10Z</time>
      </trkpt>
      <trkpt lat="44.65819" lon="4.47318">
        <ele>521</ele>
        <time>2021-01-17T12:09:25Z</time>
      </trkpt>
      <trkpt lat="44.65823" lon="4.47316">
        <ele>521</ele>
        <time>2021-01-17T12:09:30Z</time>
      </trkpt>
      <trkpt lat="44.65827" lon="4.47309">
        <ele>519</ele>
        <time>2021-01-17T12:09:39Z</time>
      </trkpt>
      <trkpt lat="44.65826" lon="4.473">
        <ele>516</ele>
        <time>2021-01-17T12:09:48Z</time>
      </trkpt>
      <trkpt lat="44.6583" lon="4.47292">
        <ele>514</ele>
        <time>2021-01-17T12:09:57Z</time>
      </trkpt>
      <trkpt lat="44.65827" lon="4.47275">
        <ele>510</ele>
        <time>2021-01-17T12:10:14Z</time>
      </trkpt>
      <trkpt lat="44.6583" lon="4.47269">
        <ele>508</ele>
        <time>2021-01-17T12:10:20Z</time>
      </trkpt>
      <trkpt lat="44.65829" lon="4.47256">
        <ele>504</ele>
        <time>2021-01-17T12:10:33Z</time>
      </trkpt>
      <trkpt lat="44.65835" lon="4.47244">
        <ele>501</ele>
        <time>2021-01-17T12:10:47Z</time>
      </trkpt>
      <trkpt lat="44.65834" lon="4.47234">
        <ele>498</ele>
        <time>2021-01-17T12:10:56Z</time>
      </trkpt>
      <trkpt lat="44.65837" lon="4.47231">
        <ele>498</ele>
        <time>2021-01-17T12:11:01Z</time>
      </trkpt>
      <trkpt lat="44.65847" lon="4.47199">
        <ele>489</ele>
        <time>2021-01-17T12:11:34Z</time>
      </trkpt>
      <trkpt lat="44.65842" lon="4.4719">
        <ele>486</ele>
        <time>2021-01-17T12:11:45Z</time>
      </trkpt>
      <trkpt lat="44.65842" lon="4.47182">
        <ele>484</ele>
        <time>2021-01-17T12:11:53Z</time>
      </trkpt>
      <trkpt lat="44.65848" lon="4.47166">
        <ele>479</ele>
        <time>2021-01-17T12:12:10Z</time>
      </trkpt>
      <trkpt lat="44.65845" lon="4.47149">
        <ele>473</ele>
        <time>2021-01-17T12:12:27Z</time>
      </trkpt>
      <trkpt lat="44.6584" lon="4.47142">
        <ele>471</ele>
        <time>2021-01-17T12:12:36Z</time>
      </trkpt>
      <trkpt lat="44.65842" lon="4.47129">
        <ele>466</ele>
        <time>2021-01-17T12:12:49Z</time>
      </trkpt>
      <trkpt lat="44.6584" lon="4.47116">
        <ele>462</ele>
        <time>2021-01-17T12:13:01Z</time>
      </trkpt>
      <trkpt lat="44.65843" lon="4.47114">
        <ele>461</ele>
        <time>2021-01-17T12:13:06Z</time>
      </trkpt>
      <trkpt lat="44.6584" lon="4.47094">
        <ele>454</ele>
        <time>2021-01-17T12:13:25Z</time>
      </trkpt>
      <trkpt lat="44.65847" lon="4.47088">
        <ele>452</ele>
        <time>2021-01-17T12:13:36Z</time>
      </trkpt>
      <trkpt lat="44.65848" lon="4.4709">
        <ele>453</ele>
        <time>2021-01-17T12:13:38Z</time>
      </trkpt>
      <trkpt lat="44.65853" lon="4.4709">
        <ele>452</ele>
        <time>2021-01-17T12:13:45Z</time>
      </trkpt>
      <trkpt lat="44.65857" lon="4.47076">
        <ele>448</ele>
        <time>2021-01-17T12:13:59Z</time>
      </trkpt>
      <trkpt lat="44.65853" lon="4.47068">
        <ele>447</ele>
        <time>2021-01-17T12:14:09Z</time>
      </trkpt>
      <trkpt lat="44.65859" lon="4.47061">
        <ele>445</ele>
        <time>2021-01-17T12:14:19Z</time>
      </trkpt>
      <trkpt lat="44.65905" lon="4.47053">
        <ele>442</ele>
        <time>2021-01-17T12:15:21Z</time>
      </trkpt>
      <trkpt lat="44.65914" lon="4.47048">
        <ele>441</ele>
        <time>2021-01-17T12:15:34Z</time>
      </trkpt>
      <trkpt lat="44.65937" lon="4.47044">
        <ele>441</ele>
        <time>2021-01-17T12:16:05Z</time>
      </trkpt>
      <trkpt lat="44.65947" lon="4.47047">
        <ele>442</ele>
        <time>2021-01-17T12:16:19Z</time>
      </trkpt>
      <trkpt lat="44.65961" lon="4.47036">
        <ele>441</ele>
        <time>2021-01-17T12:16:40Z</time>
      </trkpt>
      <trkpt lat="44.65986" lon="4.47037">
        <ele>443</ele>
        <time>2021-01-17T12:17:13Z</time>
      </trkpt>
      <trkpt lat="44.65992" lon="4.47029">
        <ele>442</ele>
        <time>2021-01-17T12:17:24Z</time>
      </trkpt>
      <trkpt lat="44.66004" lon="4.47035">
        <ele>443</ele>
        <time>2021-01-17T12:17:41Z</time>
      </trkpt>
      <trkpt lat="44.66027" lon="4.47039">
        <ele>444</ele>
        <time>2021-01-17T12:18:12Z</time>
      </trkpt>
      <trkpt lat="44.66054" lon="4.47055">
        <ele>445</ele>
        <time>2021-01-17T12:18:51Z</time>
      </trkpt>
      <trkpt lat="44.66069" lon="4.47042">
        <ele>444</ele>
        <time>2021-01-17T12:19:15Z</time>
      </trkpt>
      <trkpt lat="44.66078" lon="4.47039">
        <ele>443</ele>
        <time>2021-01-17T12:19:27Z</time>
      </trkpt>
      <trkpt lat="44.661" lon="4.47037">
        <ele>444</ele>
        <time>2021-01-17T12:19:57Z</time>
      </trkpt>
      <trkpt lat="44.66116" lon="4.47043">
        <ele>444</ele>
        <time>2021-01-17T12:20:19Z</time>
      </trkpt>
      <trkpt lat="44.66129" lon="4.47054">
        <ele>444</ele>
        <time>2021-01-17T12:20:39Z</time>
      </trkpt>
      <trkpt lat="44.66138" lon="4.47069">
        <ele>444</ele>
        <time>2021-01-17T12:20:58Z</time>
      </trkpt>
      <trkpt lat="44.6616" lon="4.47119">
        <ele>447</ele>
        <time>2021-01-17T12:21:53Z</time>
      </trkpt>
      <trkpt lat="44.66173" lon="4.47132">
        <ele>448</ele>
        <time>2021-01-17T12:22:15Z</time>
      </trkpt>
      <trkpt lat="44.66191" lon="4.47142">
        <ele>451</ele>
        <time>2021-01-17T12:22:41Z</time>
      </trkpt>
      <trkpt lat="44.66198" lon="4.4715">
        <ele>452</ele>
        <time>2021-01-17T12:22:53Z</time>
      </trkpt>
      <trkpt lat="44.66203" lon="4.47161">
        <ele>453</ele>
        <time>2021-01-17T12:23:05Z</time>
      </trkpt>
      <trkpt lat="44.6621" lon="4.47166">
        <ele>454</ele>
        <time>2021-01-17T12:23:15Z</time>
      </trkpt>
      <trkpt lat="44.66217" lon="4.47179">
        <ele>455</ele>
        <time>2021-01-17T12:23:31Z</time>
      </trkpt>
      <trkpt lat="44.66222" lon="4.4718">
        <ele>455</ele>
        <time>2021-01-17T12:23:38Z</time>
      </trkpt>
      <trkpt lat="44.66251" lon="4.47203">
        <ele>454</ele>
        <time>2021-01-17T12:24:22Z</time>
      </trkpt>
      <trkpt lat="44.66272" lon="4.47228">
        <ele>456</ele>
        <time>2021-01-17T12:24:59Z</time>
      </trkpt>
      <trkpt lat="44.66285" lon="4.47234">
        <ele>457</ele>
        <time>2021-01-17T12:25:17Z</time>
      </trkpt>
      <trkpt lat="44.66302" lon="4.47246">
        <ele>457</ele>
        <time>2021-01-17T12:25:42Z</time>
      </trkpt>
      <trkpt lat="44.66321" lon="4.47254">
        <ele>458</ele>
        <time>2021-01-17T12:26:09Z</time>
      </trkpt>
      <trkpt lat="44.66325" lon="4.47251">
        <ele>458</ele>
        <time>2021-01-17T12:26:15Z</time>
      </trkpt>
      <trkpt lat="44.66324" lon="4.47274">
        <ele>459</ele>
        <time>2021-01-17T12:26:37Z</time>
      </trkpt>
      <trkpt lat="44.66338" lon="4.47269">
        <ele>460</ele>
        <time>2021-01-17T12:26:56Z</time>
      </trkpt>
      <trkpt lat="44.66333" lon="4.47275">
        <ele>460</ele>
        <time>2021-01-17T12:27:05Z</time>
      </trkpt>
      <trkpt lat="44.66336" lon="4.47271">
        <ele>459</ele>
        <time>2021-01-17T12:27:10Z</time>
      </trkpt>
      <trkpt lat="44.66336" lon="4.47277">
        <ele>460</ele>
        <time>2021-01-17T12:27:16Z</time>
      </trkpt>
      <trkpt lat="44.66333" lon="4.47273">
        <ele>459</ele>
        <time>2021-01-17T12:27:22Z</time>
      </trkpt>
      <trkpt lat="44.6633" lon="4.47274">
        <ele>459</ele>
        <time>2021-01-17T12:27:26Z</time>
      </trkpt>
      <trkpt lat="44.6634" lon="4.47284">
        <ele>460</ele>
        <time>2021-01-17T12:27:42Z</time>
      </trkpt>
      <trkpt lat="44.66361" lon="4.47293">
        <ele>461</ele>
        <time>2021-01-17T12:28:11Z</time>
      </trkpt>
      <trkpt lat="44.66378" lon="4.47297">
        <ele>462</ele>
        <time>2021-01-17T12:28:34Z</time>
      </trkpt>
      <trkpt lat="44.66384" lon="4.47301">
        <ele>462</ele>
        <time>2021-01-17T12:28:43Z</time>
      </trkpt>
      <trkpt lat="44.66413" lon="4.47306">
        <ele>462</ele>
        <time>2021-01-17T12:29:22Z</time>
      </trkpt>
      <trkpt lat="44.66418" lon="4.47302">
        <ele>462</ele>
        <time>2021-01-17T12:29:30Z</time>
      </trkpt>
      <trkpt lat="44.66434" lon="4.47304">
        <ele>462</ele>
        <time>2021-01-17T12:29:51Z</time>
      </trkpt>
      <trkpt lat="44.66453" lon="4.4731">
        <ele>462</ele>
        <time>2021-01-17T12:30:17Z</time>
      </trkpt>
      <trkpt lat="44.66473" lon="4.4731">
        <ele>463</ele>
        <time>2021-01-17T12:30:44Z</time>
      </trkpt>
      <trkpt lat="44.66498" lon="4.47302">
        <ele>465</ele>
        <time>2021-01-17T12:31:18Z</time>
      </trkpt>
      <trkpt lat="44.66499" lon="4.47292">
        <ele>466</ele>
        <time>2021-01-17T12:31:28Z</time>
      </trkpt>
      <trkpt lat="44.66487" lon="4.47276">
        <ele>468</ele>
        <time>2021-01-17T12:31:50Z</time>
      </trkpt>
      <trkpt lat="44.6645" lon="4.4724">
        <ele>474</ele>
        <time>2021-01-17T12:32:50Z</time>
      </trkpt>
      <trkpt lat="44.66428" lon="4.47228">
        <ele>476</ele>
        <time>2021-01-17T12:33:21Z</time>
      </trkpt>
      <trkpt lat="44.66413" lon="4.4721">
        <ele>479</ele>
        <time>2021-01-17T12:33:48Z</time>
      </trkpt>
      <trkpt lat="44.664" lon="4.472">
        <ele>480</ele>
        <time>2021-01-17T12:34:08Z</time>
      </trkpt>
      <trkpt lat="44.66396" lon="4.4719">
        <ele>482</ele>
        <time>2021-01-17T12:34:18Z</time>
      </trkpt>
      <trkpt lat="44.66395" lon="4.47154">
        <ele>489</ele>
        <time>2021-01-17T12:34:53Z</time>
      </trkpt>
      <trkpt lat="44.66403" lon="4.47133">
        <ele>494</ele>
        <time>2021-01-17T12:35:15Z</time>
      </trkpt>
      <trkpt lat="44.66413" lon="4.47133">
        <ele>496</ele>
        <time>2021-01-17T12:35:29Z</time>
      </trkpt>
      <trkpt lat="44.66447" lon="4.47149">
        <ele>499</ele>
        <time>2021-01-17T12:36:16Z</time>
      </trkpt>
      <trkpt lat="44.66468" lon="4.47149">
        <ele>502</ele>
        <time>2021-01-17T12:36:44Z</time>
      </trkpt>
      <trkpt lat="44.66469" lon="4.47145">
        <ele>503</ele>
        <time>2021-01-17T12:36:48Z</time>
      </trkpt>
      <trkpt lat="44.66463" lon="4.47143">
        <ele>502</ele>
        <time>2021-01-17T12:36:57Z</time>
      </trkpt>
      <trkpt lat="44.66454" lon="4.47129">
        <ele>504</ele>
        <time>2021-01-17T12:37:15Z</time>
      </trkpt>
      <trkpt lat="44.66434" lon="4.47116">
        <ele>503</ele>
        <time>2021-01-17T12:37:44Z</time>
      </trkpt>
      <trkpt lat="44.66412" lon="4.47088">
        <ele>504</ele>
        <time>2021-01-17T12:38:24Z</time>
      </trkpt>
      <trkpt lat="44.66403" lon="4.47056">
        <ele>504</ele>
        <time>2021-01-17T12:38:56Z</time>
      </trkpt>
      <trkpt lat="44.66393" lon="4.47033">
        <ele>503</ele>
        <time>2021-01-17T12:39:22Z</time>
      </trkpt>
      <trkpt lat="44.6639" lon="4.47015">
        <ele>503</ele>
        <time>2021-01-17T12:39:39Z</time>
      </trkpt>
      <trkpt lat="44.66416" lon="4.46969">
        <ele>514</ele>
        <time>2021-01-17T12:40:35Z</time>
      </trkpt>
      <trkpt lat="44.66424" lon="4.4696">
        <ele>517</ele>
        <time>2021-01-17T12:40:49Z</time>
      </trkpt>
      <trkpt lat="44.66428" lon="4.46943">
        <ele>519</ele>
        <time>2021-01-17T12:41:06Z</time>
      </trkpt>
      <trkpt lat="44.66442" lon="4.46917">
        <ele>525</ele>
        <time>2021-01-17T12:41:37Z</time>
      </trkpt>
      <trkpt lat="44.66444" lon="4.46893">
        <ele>530</ele>
        <time>2021-01-17T12:42:00Z</time>
      </trkpt>
      <trkpt lat="44.6643" lon="4.46859">
        <ele>532</ele>
        <time>2021-01-17T12:42:37Z</time>
      </trkpt>
      <trkpt lat="44.6642" lon="4.46848">
        <ele>531</ele>
        <time>2021-01-17T12:42:54Z</time>
      </trkpt>
      <trkpt lat="44.6638" lon="4.46822">
        <ele>530</ele>
        <time>2021-01-17T12:43:53Z</time>
      </trkpt>
      <trkpt lat="44.6634" lon="4.46811">
        <ele>526</ele>
        <time>2021-01-17T12:44:47Z</time>
      </trkpt>
      <trkpt lat="44.66305" lon="4.46791">
        <ele>525</ele>
        <time>2021-01-17T12:45:38Z</time>
      </trkpt>
      <trkpt lat="44.66292" lon="4.46778">
        <ele>526</ele>
        <time>2021-01-17T12:45:59Z</time>
      </trkpt>
      <trkpt lat="44.6628" lon="4.46759">
        <ele>528</ele>
        <time>2021-01-17T12:46:23Z</time>
      </trkpt>
      <trkpt lat="44.66253" lon="4.46706">
        <ele>539</ele>
        <time>2021-01-17T12:47:25Z</time>
      </trkpt>
      <trkpt lat="44.66242" lon="4.467">
        <ele>540</ele>
        <time>2021-01-17T12:47:41Z</time>
      </trkpt>
      <trkpt lat="44.66217" lon="4.46694">
        <ele>540</ele>
        <time>2021-01-17T12:48:14Z</time>
      </trkpt>
      <trkpt lat="44.66163" lon="4.4671">
        <ele>529</ele>
        <time>2021-01-17T12:49:28Z</time>
      </trkpt>
      <trkpt lat="44.6611" lon="4.46698">
        <ele>535</ele>
        <time>2021-01-17T12:50:40Z</time>
      </trkpt>
      <trkpt lat="44.66075" lon="4.46681">
        <ele>541</ele>
        <time>2021-01-17T12:51:29Z</time>
      </trkpt>
      <trkpt lat="44.66052" lon="4.4666">
        <ele>543</ele>
        <time>2021-01-17T12:52:06Z</time>
      </trkpt>
      <trkpt lat="44.66042" lon="4.46647">
        <ele>543</ele>
        <time>2021-01-17T12:52:24Z</time>
      </trkpt>
      <trkpt lat="44.65998" lon="4.46568">
        <ele>549</ele>
        <time>2021-01-17T12:53:59Z</time>
      </trkpt>
      <trkpt lat="44.65992" lon="4.46549">
        <ele>549</ele>
        <time>2021-01-17T12:54:19Z</time>
      </trkpt>
      <trkpt lat="44.65975" lon="4.46524">
        <ele>550</ele>
        <time>2021-01-17T12:54:52Z</time>
      </trkpt>
      <trkpt lat="44.65931" lon="4.46498">
        <ele>554</ele>
        <time>2021-01-17T12:55:55Z</time>
      </trkpt>
      <trkpt lat="44.6592" lon="4.46488">
        <ele>554</ele>
        <time>2021-01-17T12:56:13Z</time>
      </trkpt>
      <trkpt lat="44.65901" lon="4.46481">
        <ele>554</ele>
        <time>2021-01-17T12:56:39Z</time>
      </trkpt>
      <trkpt lat="44.65872" lon="4.46489">
        <ele>555</ele>
        <time>2021-01-17T12:57:19Z</time>
      </trkpt>
      <trkpt lat="44.65859" lon="4.46487">
        <ele>555</ele>
        <time>2021-01-17T12:57:36Z</time>
      </trkpt>
      <trkpt lat="44.65857" lon="4.46489">
        <ele>555</ele>
        <time>2021-01-17T12:57:39Z</time>
      </trkpt>
      <trkpt lat="44.65808" lon="4.4646">
        <ele>556</ele>
        <time>2021-01-17T12:58:50Z</time>
      </trkpt>
      <trkpt lat="44.65771" lon="4.46458">
        <ele>552</ele>
        <time>2021-01-17T12:59:40Z</time>
      </trkpt>
      <trkpt lat="44.65731" lon="4.4644">
        <ele>548</ele>
        <time>2021-01-17T13:00:36Z</time>
      </trkpt>
      <trkpt lat="44.65706" lon="4.46415">
        <ele>547</ele>
        <time>2021-01-17T13:01:17Z</time>
      </trkpt>
      <trkpt lat="44.65708" lon="4.46387">
        <ele>544</ele>
        <time>2021-01-17T13:01:43Z</time>
      </trkpt>
      <trkpt lat="44.65704" lon="4.4639">
        <ele>544</ele>
        <time>2021-01-17T13:01:49Z</time>
      </trkpt>
      <trkpt lat="44.65706" lon="4.46406">
        <ele>546</ele>
        <time>2021-01-17T13:02:05Z</time>
      </trkpt>
      <trkpt lat="44.65699" lon="4.46419">
        <ele>546</ele>
        <time>2021-01-17T13:02:20Z</time>
      </trkpt>
      <trkpt lat="44.65658" lon="4.46393">
        <ele>538</ele>
        <time>2021-01-17T13:03:20Z</time>
      </trkpt>
      <trkpt lat="44.65645" lon="4.46388">
        <ele>536</ele>
        <time>2021-01-17T13:03:38Z</time>
      </trkpt>
      <trkpt lat="44.65618" lon="4.4637">
        <ele>533</ele>
        <time>2021-01-17T13:04:18Z</time>
      </trkpt>
      <trkpt lat="44.6557" lon="4.46343">
        <ele>531</ele>
        <time>2021-01-17T13:05:27Z</time>
      </trkpt>
      <trkpt lat="44.65544" lon="4.46339">
        <ele>531</ele>
        <time>2021-01-17T13:06:02Z</time>
      </trkpt>
      <trkpt lat="44.65526" lon="4.46346">
        <ele>531</ele>
        <time>2021-01-17T13:06:27Z</time>
      </trkpt>
      <trkpt lat="44.65513" lon="4.46345">
        <ele>531</ele>
        <time>2021-01-17T13:06:44Z</time>
      </trkpt>
      <trkpt lat="44.65488" lon="4.46342">
        <ele>529</ele>
        <time>2021-01-17T13:07:18Z</time>
      </trkpt>
      <trkpt lat="44.65473" lon="4.46336">
        <ele>527</ele>
        <time>2021-01-17T13:07:39Z</time>
      </trkpt>
      <trkpt lat="44.6546" lon="4.46334">
        <ele>525</ele>
        <time>2021-01-17T13:07:56Z</time>
      </trkpt>
      <trkpt lat="44.65443" lon="4.46345">
        <ele>522</ele>
        <time>2021-01-17T13:08:21Z</time>
      </trkpt>
      <trkpt lat="44.65434" lon="4.46356">
        <ele>520</ele>
        <time>2021-01-17T13:08:37Z</time>
      </trkpt>
      <trkpt lat="44.65414" lon="4.46371">
        <ele>518</ele>
        <time>2021-01-17T13:09:07Z</time>
      </trkpt>
      <trkpt lat="44.65401" lon="4.46377">
        <ele>514</ele>
        <time>2021-01-17T13:09:25Z</time>
      </trkpt>
      <trkpt lat="44.6539" lon="4.46378">
        <ele>511</ele>
        <time>2021-01-17T13:09:40Z</time>
      </trkpt>
      <trkpt lat="44.65376" lon="4.46385">
        <ele>508</ele>
        <time>2021-01-17T13:10:00Z</time>
      </trkpt>
      <trkpt lat="44.65356" lon="4.46388">
        <ele>503</ele>
        <time>2021-01-17T13:10:27Z</time>
      </trkpt>
      <trkpt lat="44.65346" lon="4.46393">
        <ele>500</ele>
        <time>2021-01-17T13:10:41Z</time>
      </trkpt>
      <trkpt lat="44.65329" lon="4.46389">
        <ele>496</ele>
        <time>2021-01-17T13:11:04Z</time>
      </trkpt>
      <trkpt lat="44.65315" lon="4.46391">
        <ele>494</ele>
        <time>2021-01-17T13:11:23Z</time>
      </trkpt>
      <trkpt lat="44.65297" lon="4.46385">
        <ele>491</ele>
        <time>2021-01-17T13:11:47Z</time>
      </trkpt>
      <trkpt lat="44.65272" lon="4.46387">
        <ele>488</ele>
        <time>2021-01-17T13:12:21Z</time>
      </trkpt>
      <trkpt lat="44.6524" lon="4.46382">
        <ele>484</ele>
        <time>2021-01-17T13:13:04Z</time>
      </trkpt>
      <trkpt lat="44.65216" lon="4.46363">
        <ele>483</ele>
        <time>2021-01-17T13:13:41Z</time>
      </trkpt>
      <trkpt lat="44.65181" lon="4.46325">
        <ele>483</ele>
        <time>2021-01-17T13:14:40Z</time>
      </trkpt>
      <trkpt lat="44.65151" lon="4.4631">
        <ele>480</ele>
        <time>2021-01-17T13:15:22Z</time>
      </trkpt>
      <trkpt lat="44.65114" lon="4.46285">
        <ele>475</ele>
        <time>2021-01-17T13:16:17Z</time>
      </trkpt>
      <trkpt lat="44.65091" lon="4.46283">
        <ele>475</ele>
        <time>2021-01-17T13:16:48Z</time>
      </trkpt>
      <trkpt lat="44.65079" lon="4.46287">
        <ele>474</ele>
        <time>2021-01-17T13:17:04Z</time>
      </trkpt>
      <trkpt lat="44.65067" lon="4.46284">
        <ele>473</ele>
        <time>2021-01-17T13:17:20Z</time>
      </trkpt>
      <trkpt lat="44.65053" lon="4.46275">
        <ele>473</ele>
        <time>2021-01-17T13:17:41Z</time>
      </trkpt>
      <trkpt lat="44.65039" lon="4.46261">
        <ele>473</ele>
        <time>2021-01-17T13:18:04Z</time>
      </trkpt>
      <trkpt lat="44.65022" lon="4.46256">
        <ele>472</ele>
        <time>2021-01-17T13:18:27Z</time>
      </trkpt>
      <trkpt lat="44.65014" lon="4.46251">
        <ele>472</ele>
        <time>2021-01-17T13:18:39Z</time>
      </trkpt>
      <trkpt lat="44.65003" lon="4.46249">
        <ele>472</ele>
        <time>2021-01-17T13:18:54Z</time>
      </trkpt>
      <trkpt lat="44.64991" lon="4.46239">
        <ele>470</ele>
        <time>2021-01-17T13:19:12Z</time>
      </trkpt>
      <trkpt lat="44.64977" lon="4.46227">
        <ele>467</ele>
        <time>2021-01-17T13:19:34Z</time>
      </trkpt>
      <trkpt lat="44.64952" lon="4.46195">
        <ele>465</ele>
        <time>2021-01-17T13:20:19Z</time>
      </trkpt>
      <trkpt lat="44.64914" lon="4.46126">
        <ele>468</ele>
        <time>2021-01-17T13:21:42Z</time>
      </trkpt>
      <trkpt lat="44.64887" lon="4.46086">
        <ele>471</ele>
        <time>2021-01-17T13:22:34Z</time>
      </trkpt>
      <trkpt lat="44.64772" lon="4.46093">
        <ele>476</ele>
        <time>2021-01-17T13:25:08Z</time>
      </trkpt>
      <trkpt lat="44.64734" lon="4.46088">
        <ele>479</ele>
        <time>2021-01-17T13:25:59Z</time>
      </trkpt>
      <trkpt lat="44.64679" lon="4.46113">
        <ele>473</ele>
        <time>2021-01-17T13:27:16Z</time>
      </trkpt>
      <trkpt lat="44.6461" lon="4.46129">
        <ele>472</ele>
        <time>2021-01-17T13:28:49Z</time>
      </trkpt>
      <trkpt lat="44.64521" lon="4.46109">
        <ele>472</ele>
        <time>2021-01-17T13:30:50Z</time>
      </trkpt>
      <trkpt lat="44.64524" lon="4.46106">
        <ele>473</ele>
        <time>2021-01-17T13:30:55Z</time>
      </trkpt>
      <trkpt lat="44.64524" lon="4.46091">
        <ele>477</ele>
        <time>2021-01-17T13:31:09Z</time>
      </trkpt>
      <trkpt lat="44.64517" lon="4.46077">
        <ele>479</ele>
        <time>2021-01-17T13:31:25Z</time>
      </trkpt>
      <trkpt lat="44.6451" lon="4.46025">
        <ele>484</ele>
        <time>2021-01-17T13:32:15Z</time>
      </trkpt>
      <trkpt lat="44.64498" lon="4.4598">
        <ele>485</ele>
        <time>2021-01-17T13:33:01Z</time>
      </trkpt>
      <trkpt lat="44.64494" lon="4.4594">
        <ele>486</ele>
        <time>2021-01-17T13:33:39Z</time>
      </trkpt>
      <trkpt lat="44.64507" lon="4.45863">
        <ele>492</ele>
        <time>2021-01-17T13:34:54Z</time>
      </trkpt>
      <trkpt lat="44.64516" lon="4.45839">
        <ele>495</ele>
        <time>2021-01-17T13:35:20Z</time>
      </trkpt>
      <trkpt lat="44.64519" lon="4.45811">
        <ele>497</ele>
        <time>2021-01-17T13:35:47Z</time>
      </trkpt>
      <trkpt lat="44.64545" lon="4.45732">
        <ele>503</ele>
        <time>2021-01-17T13:37:10Z</time>
      </trkpt>
      <trkpt lat="44.64532" lon="4.45705">
        <ele>506</ele>
        <time>2021-01-17T13:37:41Z</time>
      </trkpt>
      <trkpt lat="44.64511" lon="4.45697">
        <ele>506</ele>
        <time>2021-01-17T13:38:10Z</time>
      </trkpt>
      <trkpt lat="44.64501" lon="4.45702">
        <ele>505</ele>
        <time>2021-01-17T13:38:24Z</time>
      </trkpt>
      <trkpt lat="44.64467" lon="4.45701">
        <ele>506</ele>
        <time>2021-01-17T13:39:09Z</time>
      </trkpt>
      <trkpt lat="44.6444" lon="4.45704">
        <ele>507</ele>
        <time>2021-01-17T13:39:45Z</time>
      </trkpt>
      <trkpt lat="44.64414" lon="4.45719">
        <ele>504</ele>
        <time>2021-01-17T13:40:23Z</time>
      </trkpt>
      <trkpt lat="44.64405" lon="4.4573">
        <ele>503</ele>
        <time>2021-01-17T13:40:39Z</time>
      </trkpt>
      <trkpt lat="44.6434" lon="4.45771">
        <ele>504</ele>
        <time>2021-01-17T13:42:14Z</time>
      </trkpt>
      <trkpt lat="44.6431" lon="4.45796">
        <ele>503</ele>
        <time>2021-01-17T13:43:00Z</time>
      </trkpt>
      <trkpt lat="44.64291" lon="4.45819">
        <ele>501</ele>
        <time>2021-01-17T13:43:34Z</time>
      </trkpt>
      <trkpt lat="44.64253" lon="4.45846">
        <ele>501</ele>
        <time>2021-01-17T13:44:31Z</time>
      </trkpt>
      <trkpt lat="44.64187" lon="4.45886">
        <ele>492</ele>
        <time>2021-01-17T13:46:07Z</time>
      </trkpt>
      <trkpt lat="44.64172" lon="4.45885">
        <ele>492</ele>
        <time>2021-01-17T13:46:27Z</time>
      </trkpt>
      <trkpt lat="44.64114" lon="4.45851">
        <ele>489</ele>
        <time>2021-01-17T13:47:50Z</time>
      </trkpt>
      <trkpt lat="44.641" lon="4.45833">
        <ele>489</ele>
        <time>2021-01-17T13:48:16Z</time>
      </trkpt>
      <trkpt lat="44.64091" lon="4.45807">
        <ele>490</ele>
        <time>2021-01-17T13:48:43Z</time>
      </trkpt>
      <trkpt lat="44.64086" lon="4.45787">
        <ele>491</ele>
        <time>2021-01-17T13:49:03Z</time>
      </trkpt>
      <trkpt lat="44.64081" lon="4.45739">
        <ele>494</ele>
        <time>2021-01-17T13:49:49Z</time>
      </trkpt>
      <trkpt lat="44.64068" lon="4.4571">
        <ele>494</ele>
        <time>2021-01-17T13:50:22Z</time>
      </trkpt>
      <trkpt lat="44.64046" lon="4.45682">
        <ele>492</ele>
        <time>2021-01-17T13:51:02Z</time>
      </trkpt>
      <trkpt lat="44.64038" lon="4.45662">
        <ele>491</ele>
        <time>2021-01-17T13:51:23Z</time>
      </trkpt>
      <trkpt lat="44.64024" lon="4.45639">
        <ele>489</ele>
        <time>2021-01-17T13:51:52Z</time>
      </trkpt>
      <trkpt lat="44.64014" lon="4.45634">
        <ele>487</ele>
        <time>2021-01-17T13:52:06Z</time>
      </trkpt>
      <trkpt lat="44.64001" lon="4.45634">
        <ele>484</ele>
        <time>2021-01-17T13:52:24Z</time>
      </trkpt>
      <trkpt lat="44.63993" lon="4.45629">
        <ele>482</ele>
        <time>2021-01-17T13:52:35Z</time>
      </trkpt>
      <trkpt lat="44.6398" lon="4.45618">
        <ele>481</ele>
        <time>2021-01-17T13:52:56Z</time>
      </trkpt>
      <trkpt lat="44.63976" lon="4.45606">
        <ele>480</ele>
        <time>2021-01-17T13:53:08Z</time>
      </trkpt>
      <trkpt lat="44.63976" lon="4.45587">
        <ele>480</ele>
        <time>2021-01-17T13:53:26Z</time>
      </trkpt>
      <trkpt lat="44.63969" lon="4.45552">
        <ele>477</ele>
        <time>2021-01-17T13:54:01Z</time>
      </trkpt>
      <trkpt lat="44.63972" lon="4.45487">
        <ele>472</ele>
        <time>2021-01-17T13:55:03Z</time>
      </trkpt>
      <trkpt lat="44.63971" lon="4.45437">
        <ele>467</ele>
        <time>2021-01-17T13:55:50Z</time>
      </trkpt>
      <trkpt lat="44.63976" lon="4.45393">
        <ele>464</ele>
        <time>2021-01-17T13:56:32Z</time>
      </trkpt>
      <trkpt lat="44.63997" lon="4.45346">
        <ele>464</ele>
        <time>2021-01-17T13:57:25Z</time>
      </trkpt>
      <trkpt lat="44.64022" lon="4.45301">
        <ele>467</ele>
        <time>2021-01-17T13:58:19Z</time>
      </trkpt>
      <trkpt lat="44.64021" lon="4.45277">
        <ele>465</ele>
        <time>2021-01-17T13:58:42Z</time>
      </trkpt>
      <trkpt lat="44.64025" lon="4.45235">
        <ele>463</ele>
        <time>2021-01-17T13:59:22Z</time>
      </trkpt>
      <trkpt lat="44.64032" lon="4.45204">
        <ele>462</ele>
        <time>2021-01-17T13:59:53Z</time>
      </trkpt>
      <trkpt lat="44.64039" lon="4.45196">
        <ele>462</ele>
        <time>2021-01-17T14:00:05Z</time>
      </trkpt>
      <trkpt lat="44.64041" lon="4.45181">
        <ele>461</ele>
        <time>2021-01-17T14:00:20Z</time>
      </trkpt>
      <trkpt lat="44.64041" lon="4.45171">
        <ele>460</ele>
        <time>2021-01-17T14:00:29Z</time>
      </trkpt>
      <trkpt lat="44.64027" lon="4.45159">
        <ele>459</ele>
        <time>2021-01-17T14:00:51Z</time>
      </trkpt>
      <trkpt lat="44.64012" lon="4.45155">
        <ele>459</ele>
        <time>2021-01-17T14:01:11Z</time>
      </trkpt>
      <trkpt lat="44.64007" lon="4.45148">
        <ele>459</ele>
        <time>2021-01-17T14:01:21Z</time>
      </trkpt>
      <trkpt lat="44.64008" lon="4.45162">
        <ele>460</ele>
        <time>2021-01-17T14:01:34Z</time>
      </trkpt>
      <trkpt lat="44.63996" lon="4.45153">
        <ele>459</ele>
        <time>2021-01-17T14:01:52Z</time>
      </trkpt>
      <trkpt lat="44.63995" lon="4.45139">
        <ele>459</ele>
        <time>2021-01-17T14:02:06Z</time>
      </trkpt>
      <trkpt lat="44.64004" lon="4.45136">
        <ele>459</ele>
        <time>2021-01-17T14:02:18Z</time>
      </trkpt>
      <trkpt lat="44.64023" lon="4.45158">
        <ele>459</ele>
        <time>2021-01-17T14:02:51Z</time>
      </trkpt>
      <trkpt lat="44.64029" lon="4.45171">
        <ele>460</ele>
        <time>2021-01-17T14:03:06Z</time>
      </trkpt>
      <trkpt lat="44.64019" lon="4.452">
        <ele>461</ele>
        <time>2021-01-17T14:03:36Z</time>
      </trkpt>
      <trkpt lat="44.63999" lon="4.45219">
        <ele>460</ele>
        <time>2021-01-17T14:04:08Z</time>
      </trkpt>
      <trkpt lat="44.6399" lon="4.45233">
        <ele>459</ele>
        <time>2021-01-17T14:04:26Z</time>
      </trkpt>
      <trkpt lat="44.63983" lon="4.45265">
        <ele>458</ele>
        <time>2021-01-17T14:04:58Z</time>
      </trkpt>
      <trkpt lat="44.63933" lon="4.45325">
        <ele>450</ele>
        <time>2021-01-17T14:06:26Z</time>
      </trkpt>
      <trkpt lat="44.6393" lon="4.45335">
        <ele>450</ele>
        <time>2021-01-17T14:06:36Z</time>
      </trkpt>
      <trkpt lat="44.63932" lon="4.45352">
        <ele>452</ele>
        <time>2021-01-17T14:06:53Z</time>
      </trkpt>
      <trkpt lat="44.6392" lon="4.45356">
        <ele>450</ele>
        <time>2021-01-17T14:07:09Z</time>
      </trkpt>
      <trkpt lat="44.6387" lon="4.45406">
        <ele>447</ele>
        <time>2021-01-17T14:08:31Z</time>
      </trkpt>
      <trkpt lat="44.63849" lon="4.45413">
        <ele>445</ele>
        <time>2021-01-17T14:09:00Z</time>
      </trkpt>
      <trkpt lat="44.63827" lon="4.45409">
        <ele>442</ele>
        <time>2021-01-17T14:09:29Z</time>
      </trkpt>
      <trkpt lat="44.63807" lon="4.45412">
        <ele>443</ele>
        <time>2021-01-17T14:09:56Z</time>
      </trkpt>
      <trkpt lat="44.63789" lon="4.45411">
        <ele>443</ele>
        <time>2021-01-17T14:10:20Z</time>
      </trkpt>
      <trkpt lat="44.63755" lon="4.45403">
        <ele>441</ele>
        <time>2021-01-17T14:11:06Z</time>
      </trkpt>
      <trkpt lat="44.63738" lon="4.45392">
        <ele>439</ele>
        <time>2021-01-17T14:11:31Z</time>
      </trkpt>
      <trkpt lat="44.6372" lon="4.45386">
        <ele>438</ele>
        <time>2021-01-17T14:11:56Z</time>
      </trkpt>
      <trkpt lat="44.6368" lon="4.45347">
        <ele>433</ele>
        <time>2021-01-17T14:13:01Z</time>
      </trkpt>
      <trkpt lat="44.63672" lon="4.45358">
        <ele>434</ele>
        <time>2021-01-17T14:13:16Z</time>
      </trkpt>
      <trkpt lat="44.63652" lon="4.45413">
        <ele>439</ele>
        <time>2021-01-17T14:14:14Z</time>
      </trkpt>
      <trkpt lat="44.63591" lon="4.45472">
        <ele>436</ele>
        <time>2021-01-17T14:15:53Z</time>
      </trkpt>
      <trkpt lat="44.63586" lon="4.45466">
        <ele>435</ele>
        <time>2021-01-17T14:16:02Z</time>
      </trkpt>
      <trkpt lat="44.63574" lon="4.45459">
        <ele>434</ele>
        <time>2021-01-17T14:16:19Z</time>
      </trkpt>
      <trkpt lat="44.63556" lon="4.45455">
        <ele>432</ele>
        <time>2021-01-17T14:16:44Z</time>
      </trkpt>
      <trkpt lat="44.63546" lon="4.45445">
        <ele>431</ele>
        <time>2021-01-17T14:17:00Z</time>
      </trkpt>
      <trkpt lat="44.63522" lon="4.45434">
        <ele>428</ele>
        <time>2021-01-17T14:17:34Z</time>
      </trkpt>
      <trkpt lat="44.63512" lon="4.45422">
        <ele>427</ele>
        <time>2021-01-17T14:17:51Z</time>
      </trkpt>
      <trkpt lat="44.63504" lon="4.45386">
        <ele>426</ele>
        <time>2021-01-17T14:18:27Z</time>
      </trkpt>
      <trkpt lat="44.63488" lon="4.45371">
        <ele>425</ele>
        <time>2021-01-17T14:18:53Z</time>
      </trkpt>
      <trkpt lat="44.63465" lon="4.45366">
        <ele>424</ele>
        <time>2021-01-17T14:19:24Z</time>
      </trkpt>
      <trkpt lat="44.63459" lon="4.45367">
        <ele>423</ele>
        <time>2021-01-17T14:19:32Z</time>
      </trkpt>
      <trkpt lat="44.63444" lon="4.4536">
        <ele>422</ele>
        <time>2021-01-17T14:19:53Z</time>
      </trkpt>
      <trkpt lat="44.63425" lon="4.45344">
        <ele>420</ele>
        <time>2021-01-17T14:20:23Z</time>
      </trkpt>
      <trkpt lat="44.63393" lon="4.45329">
        <ele>417</ele>
        <time>2021-01-17T14:21:08Z</time>
      </trkpt>
      <trkpt lat="44.63346" lon="4.45332">
        <ele>415</ele>
        <time>2021-01-17T14:22:10Z</time>
      </trkpt>
      <trkpt lat="44.63339" lon="4.45329">
        <ele>414</ele>
        <time>2021-01-17T14:22:20Z</time>
      </trkpt>
      <trkpt lat="44.6331" lon="4.45326">
        <ele>413</ele>
        <time>2021-01-17T14:22:59Z</time>
      </trkpt>
      <trkpt lat="44.63303" lon="4.45329">
        <ele>412</ele>
        <time>2021-01-17T14:23:09Z</time>
      </trkpt>
      <trkpt lat="44.63285" lon="4.45326">
        <ele>411</ele>
        <time>2021-01-17T14:23:33Z</time>
      </trkpt>
      <trkpt lat="44.63271" lon="4.45317">
        <ele>410</ele>
        <time>2021-01-17T14:23:53Z</time>
      </trkpt>
      <trkpt lat="44.63257" lon="4.45292">
        <ele>408</ele>
        <time>2021-01-17T14:24:24Z</time>
      </trkpt>
      <trkpt lat="44.63227" lon="4.45278">
        <ele>405</ele>
        <time>2021-01-17T14:25:06Z</time>
      </trkpt>
      <trkpt lat="44.63211" lon="4.45274">
        <ele>405</ele>
        <time>2021-01-17T14:25:28Z</time>
      </trkpt>
      <trkpt lat="44.63191" lon="4.45279">
        <ele>404</ele>
        <time>2021-01-17T14:25:55Z</time>
      </trkpt>
      <trkpt lat="44.63158" lon="4.4528">
        <ele>403</ele>
        <time>2021-01-17T14:26:39Z</time>
      </trkpt>
      <trkpt lat="44.63112" lon="4.45299">
        <ele>400</ele>
        <time>2021-01-17T14:27:43Z</time>
      </trkpt>
      <trkpt lat="44.63099" lon="4.45297">
        <ele>399</ele>
        <time>2021-01-17T14:28:00Z</time>
      </trkpt>
      <trkpt lat="44.63089" lon="4.45302">
        <ele>398</ele>
        <time>2021-01-17T14:28:14Z</time>
      </trkpt>
      <trkpt lat="44.63072" lon="4.45321">
        <ele>396</ele>
        <time>2021-01-17T14:28:43Z</time>
      </trkpt>
      <trkpt lat="44.63049" lon="4.45334">
        <ele>392</ele>
        <time>2021-01-17T14:29:16Z</time>
      </trkpt>
      <trkpt lat="44.63038" lon="4.45345">
        <ele>390</ele>
        <time>2021-01-17T14:29:34Z</time>
      </trkpt>
      <trkpt lat="44.63027" lon="4.45352">
        <ele>389</ele>
        <time>2021-01-17T14:29:50Z</time>
      </trkpt>
      <trkpt lat="44.63018" lon="4.45354">
        <ele>388</ele>
        <time>2021-01-17T14:30:03Z</time>
      </trkpt>
      <trkpt lat="44.62995" lon="4.45373">
        <ele>385</ele>
        <time>2021-01-17T14:30:38Z</time>
      </trkpt>
      <trkpt lat="44.62967" lon="4.45388">
        <ele>381</ele>
        <time>2021-01-17T14:31:18Z</time>
      </trkpt>
      <trkpt lat="44.62953" lon="4.45394">
        <ele>380</ele>
        <time>2021-01-17T14:31:38Z</time>
      </trkpt>
      <trkpt lat="44.62947" lon="4.45394">
        <ele>379</ele>
        <time>2021-01-17T14:31:46Z</time>
      </trkpt>
      <trkpt lat="44.62907" lon="4.45412">
        <ele>375</ele>
        <time>2021-01-17T14:32:42Z</time>
      </trkpt>
      <trkpt lat="44.62878" lon="4.4543">
        <ele>371</ele>
        <time>2021-01-17T14:33:24Z</time>
      </trkpt>
      <trkpt lat="44.62872" lon="4.45446">
        <ele>370</ele>
        <time>2021-01-17T14:33:41Z</time>
      </trkpt>
      <trkpt lat="44.62867" lon="4.45502">
        <ele>367</ele>
        <time>2021-01-17T14:34:35Z</time>
      </trkpt>
      <trkpt lat="44.62872" lon="4.45524">
        <ele>365</ele>
        <time>2021-01-17T14:34:57Z</time>
      </trkpt>
      <trkpt lat="44.62886" lon="4.45563">
        <ele>362</ele>
        <time>2021-01-17T14:35:38Z</time>
      </trkpt>
      <trkpt lat="44.62898" lon="4.45577">
        <ele>362</ele>
        <time>2021-01-17T14:35:59Z</time>
      </trkpt>
      <trkpt lat="44.62908" lon="4.45597">
        <ele>361</ele>
        <time>2021-01-17T14:36:22Z</time>
      </trkpt>
      <trkpt lat="44.62913" lon="4.45615">
        <ele>360</ele>
        <time>2021-01-17T14:36:41Z</time>
      </trkpt>
      <trkpt lat="44.62924" lon="4.45691">
        <ele>355</ele>
        <time>2021-01-17T14:37:54Z</time>
      </trkpt>
      <trkpt lat="44.62925" lon="4.45713">
        <ele>354</ele>
        <time>2021-01-17T14:38:15Z</time>
      </trkpt>
      <trkpt lat="44.62943" lon="4.45733">
        <ele>354</ele>
        <time>2021-01-17T14:38:46Z</time>
      </trkpt>
      <trkpt lat="44.62967" lon="4.45746">
        <ele>355</ele>
        <time>2021-01-17T14:39:20Z</time>
      </trkpt>
      <trkpt lat="44.62981" lon="4.4575">
        <ele>356</ele>
        <time>2021-01-17T14:39:39Z</time>
      </trkpt>
      <trkpt lat="44.62991" lon="4.45761">
        <ele>356</ele>
        <time>2021-01-17T14:39:56Z</time>
      </trkpt>
      <trkpt lat="44.62994" lon="4.458">
        <ele>355</ele>
        <time>2021-01-17T14:40:33Z</time>
      </trkpt>
      <trkpt lat="44.63004" lon="4.4582">
        <ele>355</ele>
        <time>2021-01-17T14:40:57Z</time>
      </trkpt>
      <trkpt lat="44.63023" lon="4.45837">
        <ele>355</ele>
        <time>2021-01-17T14:41:27Z</time>
      </trkpt>
      <trkpt lat="44.63036" lon="4.45853">
        <ele>356</ele>
        <time>2021-01-17T14:41:50Z</time>
      </trkpt>
      <trkpt lat="44.6304" lon="4.45865">
        <ele>356</ele>
        <time>2021-01-17T14:42:02Z</time>
      </trkpt>
      <trkpt lat="44.63049" lon="4.45876">
        <ele>356</ele>
        <time>2021-01-17T14:42:18Z</time>
      </trkpt>
      <trkpt lat="44.63058" lon="4.45885">
        <ele>356</ele>
        <time>2021-01-17T14:42:33Z</time>
      </trkpt>
      <trkpt lat="44.63071" lon="4.45893">
        <ele>357</ele>
        <time>2021-01-17T14:42:52Z</time>
      </trkpt>
      <trkpt lat="44.63075" lon="4.45903">
        <ele>356</ele>
        <time>2021-01-17T14:43:03Z</time>
      </trkpt>
      <trkpt lat="44.631" lon="4.4592">
        <ele>357</ele>
        <time>2021-01-17T14:43:40Z</time>
      </trkpt>
      <trkpt lat="44.63143" lon="4.45927">
        <ele>360</ele>
        <time>2021-01-17T14:44:38Z</time>
      </trkpt>
      <trkpt lat="44.63155" lon="4.4592">
        <ele>361</ele>
        <time>2021-01-17T14:44:55Z</time>
      </trkpt>
      <trkpt lat="44.63173" lon="4.45923">
        <ele>362</ele>
        <time>2021-01-17T14:45:19Z</time>
      </trkpt>
      <trkpt lat="44.63186" lon="4.45928">
        <ele>362</ele>
        <time>2021-01-17T14:45:37Z</time>
      </trkpt>
      <trkpt lat="44.63208" lon="4.45948">
        <ele>362</ele>
        <time>2021-01-17T14:46:12Z</time>
      </trkpt>
      <trkpt lat="44.63212" lon="4.4596">
        <ele>362</ele>
        <time>2021-01-17T14:46:25Z</time>
      </trkpt>
      <trkpt lat="44.63239" lon="4.45992">
        <ele>361</ele>
        <time>2021-01-17T14:47:12Z</time>
      </trkpt>
      <trkpt lat="44.63254" lon="4.46024">
        <ele>356</ele>
        <time>2021-01-17T14:47:48Z</time>
      </trkpt>
      <trkpt lat="44.63269" lon="4.46035">
        <ele>354</ele>
        <time>2021-01-17T14:48:11Z</time>
      </trkpt>
      <trkpt lat="44.63292" lon="4.46059">
        <ele>349</ele>
        <time>2021-01-17T14:48:49Z</time>
      </trkpt>
      <trkpt lat="44.63305" lon="4.46066">
        <ele>348</ele>
        <time>2021-01-17T14:49:08Z</time>
      </trkpt>
      <trkpt lat="44.63331" lon="4.46073">
        <ele>346</ele>
        <time>2021-01-17T14:49:43Z</time>
      </trkpt>
      <trkpt lat="44.63337" lon="4.46072">
        <ele>346</ele>
        <time>2021-01-17T14:49:51Z</time>
      </trkpt>
      <trkpt lat="44.63335" lon="4.46085">
        <ele>343</ele>
        <time>2021-01-17T14:50:04Z</time>
      </trkpt>
      <trkpt lat="44.63354" lon="4.46083">
        <ele>343</ele>
        <time>2021-01-17T14:50:29Z</time>
      </trkpt>
      <trkpt lat="44.63369" lon="4.46078">
        <ele>344</ele>
        <time>2021-01-17T14:50:50Z</time>
      </trkpt>
      <trkpt lat="44.63384" lon="4.46069">
        <ele>347</ele>
        <time>2021-01-17T14:51:11Z</time>
      </trkpt>
      <trkpt lat="44.63392" lon="4.46071">
        <ele>346</ele>
        <time>2021-01-17T14:51:22Z</time>
      </trkpt>
      <trkpt lat="44.63403" lon="4.46067">
        <ele>347</ele>
        <time>2021-01-17T14:51:37Z</time>
      </trkpt>
      <trkpt lat="44.63412" lon="4.46072">
        <ele>346</ele>
        <time>2021-01-17T14:51:50Z</time>
      </trkpt>
      <trkpt lat="44.63424" lon="4.46097">
        <ele>342</ele>
        <time>2021-01-17T14:52:19Z</time>
      </trkpt>
      <trkpt lat="44.63426" lon="4.46113">
        <ele>340</ele>
        <time>2021-01-17T14:52:34Z</time>
      </trkpt>
      <trkpt lat="44.63424" lon="4.46139">
        <ele>337</ele>
        <time>2021-01-17T14:52:59Z</time>
      </trkpt>
      <trkpt lat="44.63431" lon="4.46157">
        <ele>335</ele>
        <time>2021-01-17T14:53:19Z</time>
      </trkpt>
      <trkpt lat="44.63432" lon="4.46166">
        <ele>334</ele>
        <time>2021-01-17T14:53:27Z</time>
      </trkpt>
      <trkpt lat="44.63427" lon="4.46174">
        <ele>336</ele>
        <time>2021-01-17T14:53:38Z</time>
      </trkpt>
      <trkpt lat="44.63428" lon="4.46171">
        <ele>335</ele>
        <time>2021-01-17T14:53:41Z</time>
      </trkpt>
      <trkpt lat="44.63419" lon="4.4616">
        <ele>335</ele>
        <time>2021-01-17T14:53:57Z</time>
      </trkpt>
      <trkpt lat="44.63408" lon="4.46138">
        <ele>337</ele>
        <time>2021-01-17T14:54:22Z</time>
      </trkpt>
      <trkpt lat="44.63409" lon="4.46127">
        <ele>338</ele>
        <time>2021-01-17T14:54:33Z</time>
      </trkpt>
      <trkpt lat="44.63402" lon="4.46116">
        <ele>340</ele>
        <time>2021-01-17T14:54:47Z</time>
      </trkpt>
      <trkpt lat="44.6339" lon="4.46118">
        <ele>339</ele>
        <time>2021-01-17T14:55:03Z</time>
      </trkpt>
      <trkpt lat="44.63379" lon="4.46129">
        <ele>338</ele>
        <time>2021-01-17T14:55:21Z</time>
      </trkpt>
      <trkpt lat="44.63369" lon="4.46144">
        <ele>337</ele>
        <time>2021-01-17T14:55:40Z</time>
      </trkpt>
      <trkpt lat="44.63359" lon="4.46146">
        <ele>337</ele>
        <time>2021-01-17T14:55:54Z</time>
      </trkpt>
      <trkpt lat="44.63331" lon="4.46171">
        <ele>336</ele>
        <time>2021-01-17T14:56:38Z</time>
      </trkpt>
      <trkpt lat="44.63324" lon="4.46174">
        <ele>337</ele>
        <time>2021-01-17T14:56:48Z</time>
      </trkpt>
      <trkpt lat="44.63305" lon="4.46174">
        <ele>336</ele>
        <time>2021-01-17T14:57:13Z</time>
      </trkpt>
      <trkpt lat="44.63286" lon="4.4616">
        <ele>335</ele>
        <time>2021-01-17T14:57:42Z</time>
      </trkpt>
      <trkpt lat="44.63262" lon="4.46175">
        <ele>336</ele>
        <time>2021-01-17T14:58:17Z</time>
      </trkpt>
      <trkpt lat="44.63254" lon="4.46176">
        <ele>336</ele>
        <time>2021-01-17T14:58:28Z</time>
      </trkpt>
      <trkpt lat="44.63245" lon="4.46172">
        <ele>335</ele>
        <time>2021-01-17T14:58:40Z</time>
      </trkpt>
      <trkpt lat="44.6322" lon="4.46167">
        <ele>334</ele>
        <time>2021-01-17T14:59:14Z</time>
      </trkpt>
      <trkpt lat="44.63183" lon="4.46165">
        <ele>334</ele>
        <time>2021-01-17T15:00:03Z</time>
      </trkpt>
      <trkpt lat="44.63175" lon="4.46175">
        <ele>333</ele>
        <time>2021-01-17T15:00:18Z</time>
      </trkpt>
      <trkpt lat="44.63167" lon="4.46191">
        <ele>332</ele>
        <time>2021-01-17T15:00:36Z</time>
      </trkpt>
      <trkpt lat="44.63164" lon="4.46214">
        <ele>332</ele>
        <time>2021-01-17T15:00:58Z</time>
      </trkpt>
      <trkpt lat="44.63165" lon="4.46209">
        <ele>332</ele>
        <time>2021-01-17T15:01:03Z</time>
      </trkpt>
      <trkpt lat="44.63162" lon="4.46203">
        <ele>333</ele>
        <time>2021-01-17T15:01:10Z</time>
      </trkpt>
      <trkpt lat="44.63163" lon="4.46182">
        <ele>333</ele>
        <time>2021-01-17T15:01:30Z</time>
      </trkpt>
      <trkpt lat="44.63159" lon="4.4618">
        <ele>334</ele>
        <time>2021-01-17T15:01:36Z</time>
      </trkpt>
      <trkpt lat="44.63156" lon="4.46182">
        <ele>334</ele>
        <time>2021-01-17T15:01:40Z</time>
      </trkpt>
      <trkpt lat="44.63167" lon="4.46174">
        <ele>333</ele>
        <time>2021-01-17T15:01:57Z</time>
      </trkpt>
      <trkpt lat="44.63177" lon="4.46171">
        <ele>333</ele>
        <time>2021-01-17T15:02:11Z</time>
      </trkpt>
      <trkpt lat="44.63198" lon="4.46171">
        <ele>334</ele>
        <time>2021-01-17T15:02:39Z</time>
      </trkpt>
      <trkpt lat="44.63209" lon="4.46176">
        <ele>334</ele>
        <time>2021-01-17T15:02:54Z</time>
      </trkpt>
      <trkpt lat="44.63223" lon="4.46189">
        <ele>337</ele>
        <time>2021-01-17T15:03:16Z</time>
      </trkpt>
      <trkpt lat="44.63237" lon="4.46191">
        <ele>338</ele>
        <time>2021-01-17T15:03:35Z</time>
      </trkpt>
      <trkpt lat="44.63247" lon="4.46189">
        <ele>338</ele>
        <time>2021-01-17T15:03:49Z</time>
      </trkpt>
      <trkpt lat="44.63255" lon="4.46183">
        <ele>337</ele>
        <time>2021-01-17T15:04:01Z</time>
      </trkpt>
      <trkpt lat="44.63284" lon="4.46181">
        <ele>338</ele>
        <time>2021-01-17T15:04:39Z</time>
      </trkpt>
      <trkpt lat="44.63282" lon="4.46176">
        <ele>337</ele>
        <time>2021-01-17T15:04:45Z</time>
      </trkpt>
      <trkpt lat="44.63305" lon="4.46183">
        <ele>339</ele>
        <time>2021-01-17T15:05:16Z</time>
      </trkpt>
      <trkpt lat="44.63316" lon="4.46178">
        <ele>338</ele>
        <time>2021-01-17T15:05:32Z</time>
      </trkpt>
      <trkpt lat="44.63336" lon="4.46182">
        <ele>339</ele>
        <time>2021-01-17T15:05:59Z</time>
      </trkpt>
      <trkpt lat="44.6335" lon="4.46162">
        <ele>335</ele>
        <time>2021-01-17T15:06:25Z</time>
      </trkpt>
      <trkpt lat="44.63357" lon="4.46157">
        <ele>336</ele>
        <time>2021-01-17T15:06:36Z</time>
      </trkpt>
      <trkpt lat="44.63368" lon="4.46157">
        <ele>336</ele>
        <time>2021-01-17T15:06:51Z</time>
      </trkpt>
      <trkpt lat="44.63383" lon="4.46133">
        <ele>338</ele>
        <time>2021-01-17T15:07:21Z</time>
      </trkpt>
      <trkpt lat="44.63393" lon="4.46124">
        <ele>339</ele>
        <time>2021-01-17T15:07:37Z</time>
      </trkpt>
      <trkpt lat="44.63399" lon="4.46122">
        <ele>339</ele>
        <time>2021-01-17T15:07:45Z</time>
      </trkpt>
      <trkpt lat="44.63413" lon="4.4615">
        <ele>336</ele>
        <time>2021-01-17T15:08:17Z</time>
      </trkpt>
      <trkpt lat="44.63424" lon="4.46164">
        <ele>334</ele>
        <time>2021-01-17T15:08:37Z</time>
      </trkpt>
      <trkpt lat="44.6344" lon="4.46167">
        <ele>334</ele>
        <time>2021-01-17T15:08:59Z</time>
      </trkpt>
      <trkpt lat="44.63453" lon="4.46165">
        <ele>335</ele>
        <time>2021-01-17T15:09:16Z</time>
      </trkpt>
      <trkpt lat="44.63462" lon="4.4616">
        <ele>335</ele>
        <time>2021-01-17T15:09:29Z</time>
      </trkpt>
      <trkpt lat="44.63467" lon="4.46164">
        <ele>335</ele>
        <time>2021-01-17T15:09:37Z</time>
      </trkpt>
      <trkpt lat="44.63481" lon="4.46153">
        <ele>337</ele>
        <time>2021-01-17T15:09:58Z</time>
      </trkpt>
      <trkpt lat="44.63508" lon="4.46149">
        <ele>338</ele>
        <time>2021-01-17T15:10:34Z</time>
      </trkpt>
      <trkpt lat="44.63521" lon="4.46151">
        <ele>339</ele>
        <time>2021-01-17T15:10:52Z</time>
      </trkpt>
      <trkpt lat="44.63544" lon="4.46166">
        <ele>339</ele>
        <time>2021-01-17T15:11:26Z</time>
      </trkpt>
      <trkpt lat="44.63544" lon="4.46193">
        <ele>341</ele>
        <time>2021-01-17T15:11:51Z</time>
      </trkpt>
      <trkpt lat="44.63566" lon="4.46223">
        <ele>343</ele>
        <time>2021-01-17T15:12:32Z</time>
      </trkpt>
      <trkpt lat="44.63577" lon="4.46234">
        <ele>343</ele>
        <time>2021-01-17T15:12:50Z</time>
      </trkpt>
      <trkpt lat="44.63587" lon="4.46237">
        <ele>343</ele>
        <time>2021-01-17T15:13:04Z</time>
      </trkpt>
      <trkpt lat="44.6355" lon="4.46196">
        <ele>342</ele>
        <time>2021-01-17T15:14:07Z</time>
      </trkpt>
      <trkpt lat="44.63542" lon="4.46166">
        <ele>339</ele>
        <time>2021-01-17T15:14:37Z</time>
      </trkpt>
      <trkpt lat="44.63531" lon="4.46159">
        <ele>339</ele>
        <time>2021-01-17T15:14:53Z</time>
      </trkpt>
      <trkpt lat="44.63514" lon="4.46153">
        <ele>338</ele>
        <time>2021-01-17T15:15:17Z</time>
      </trkpt>
      <trkpt lat="44.635" lon="4.46154">
        <ele>337</ele>
        <time>2021-01-17T15:15:35Z</time>
      </trkpt>
      <trkpt lat="44.63479" lon="4.46176">
        <ele>337</ele>
        <time>2021-01-17T15:16:10Z</time>
      </trkpt>
      <trkpt lat="44.63469" lon="4.46192">
        <ele>340</ele>
        <time>2021-01-17T15:16:31Z</time>
      </trkpt>
      <trkpt lat="44.63472" lon="4.462">
        <ele>342</ele>
        <time>2021-01-17T15:16:39Z</time>
      </trkpt>
      <trkpt lat="44.63483" lon="4.46201">
        <ele>342</ele>
        <time>2021-01-17T15:16:54Z</time>
      </trkpt>
      <trkpt lat="44.63499" lon="4.46198">
        <ele>341</ele>
        <time>2021-01-17T15:17:15Z</time>
      </trkpt>
      <trkpt lat="44.63509" lon="4.46206">
        <ele>343</ele>
        <time>2021-01-17T15:17:31Z</time>
      </trkpt>
      <trkpt lat="44.63509" lon="4.46219">
        <ele>345</ele>
        <time>2021-01-17T15:17:43Z</time>
      </trkpt>
      <trkpt lat="44.635" lon="4.4625">
        <ele>352</ele>
        <time>2021-01-17T15:18:15Z</time>
      </trkpt>
      <trkpt lat="44.63505" lon="4.46257">
        <ele>354</ele>
        <time>2021-01-17T15:18:24Z</time>
      </trkpt>
      <trkpt lat="44.6352" lon="4.46259">
        <ele>353</ele>
        <time>2021-01-17T15:18:44Z</time>
      </trkpt>
      <trkpt lat="44.63638" lon="4.46292">
        <ele>358</ele>
        <time>2021-01-17T15:21:25Z</time>
      </trkpt>
      <trkpt lat="44.63704" lon="4.46267">
        <ele>349</ele>
        <time>2021-01-17T15:22:56Z</time>
      </trkpt>
      <trkpt lat="44.63737" lon="4.46203">
        <ele>349</ele>
        <time>2021-01-17T15:24:11Z</time>
      </trkpt>
      <trkpt lat="44.63725" lon="4.46299">
        <ele>352</ele>
        <time>2021-01-17T15:25:44Z</time>
      </trkpt>
      <trkpt lat="44.63758" lon="4.46365">
        <ele>354</ele>
        <time>2021-01-17T15:27:00Z</time>
      </trkpt>
      <trkpt lat="44.63744" lon="4.46452">
        <ele>359</ele>
        <time>2021-01-17T15:28:25Z</time>
      </trkpt>
      <trkpt lat="44.63748" lon="4.46357">
        <ele>353</ele>
        <time>2021-01-17T15:29:56Z</time>
      </trkpt>
      <trkpt lat="44.63718" lon="4.46292">
        <ele>352</ele>
        <time>2021-01-17T15:31:09Z</time>
      </trkpt>
      <trkpt lat="44.63736" lon="4.46203">
        <ele>349</ele>
        <time>2021-01-17T15:32:37Z</time>
      </trkpt>
      <trkpt lat="44.63704" lon="4.46263">
        <ele>348</ele>
        <time>2021-01-17T15:33:48Z</time>
      </trkpt>
      <trkpt lat="44.63637" lon="4.46294">
        <ele>359</ele>
        <time>2021-01-17T15:35:22Z</time>
      </trkpt>
      <trkpt lat="44.63515" lon="4.46271">
        <ele>358</ele>
        <time>2021-01-17T15:38:07Z</time>
      </trkpt>
      <trkpt lat="44.63519" lon="4.46261">
        <ele>354</ele>
        <time>2021-01-17T15:38:17Z</time>
      </trkpt>
      <trkpt lat="44.63515" lon="4.46274">
        <ele>359</ele>
        <time>2021-01-17T15:38:31Z</time>
      </trkpt>
      <trkpt lat="44.63482" lon="4.46293">
        <ele>366</ele>
        <time>2021-01-17T15:39:18Z</time>
      </trkpt>
      <trkpt lat="44.63472" lon="4.46296">
        <ele>367</ele>
        <time>2021-01-17T15:39:32Z</time>
      </trkpt>
      <trkpt lat="44.63445" lon="4.46293">
        <ele>366</ele>
        <time>2021-01-17T15:40:08Z</time>
      </trkpt>
      <trkpt lat="44.63432" lon="4.46285">
        <ele>364</ele>
        <time>2021-01-17T15:40:27Z</time>
      </trkpt>
      <trkpt lat="44.63422" lon="4.46285">
        <ele>364</ele>
        <time>2021-01-17T15:40:41Z</time>
      </trkpt>
      <trkpt lat="44.63413" lon="4.46303">
        <ele>369</ele>
        <time>2021-01-17T15:41:01Z</time>
      </trkpt>
      <trkpt lat="44.63421" lon="4.4631">
        <ele>371</ele>
        <time>2021-01-17T15:41:14Z</time>
      </trkpt>
      <trkpt lat="44.63427" lon="4.4632">
        <ele>374</ele>
        <time>2021-01-17T15:41:26Z</time>
      </trkpt>
      <trkpt lat="44.63421" lon="4.4634">
        <ele>378</ele>
        <time>2021-01-17T15:41:47Z</time>
      </trkpt>
      <trkpt lat="44.63413" lon="4.46354">
        <ele>378</ele>
        <time>2021-01-17T15:42:04Z</time>
      </trkpt>
      <trkpt lat="44.63397" lon="4.46405">
        <ele>380</ele>
        <time>2021-01-17T15:42:57Z</time>
      </trkpt>
      <trkpt lat="44.63369" lon="4.46456">
        <ele>378</ele>
        <time>2021-01-17T15:43:58Z</time>
      </trkpt>
      <trkpt lat="44.63337" lon="4.46563">
        <ele>376</ele>
        <time>2021-01-17T15:45:48Z</time>
      </trkpt>
      <trkpt lat="44.63324" lon="4.46595">
        <ele>376</ele>
        <time>2021-01-17T15:46:23Z</time>
      </trkpt>
      <trkpt lat="44.63315" lon="4.46599">
        <ele>375</ele>
        <time>2021-01-17T15:46:36Z</time>
      </trkpt>
      <trkpt lat="44.63306" lon="4.46611">
        <ele>376</ele>
        <time>2021-01-17T15:46:53Z</time>
      </trkpt>
      <trkpt lat="44.63303" lon="4.46636">
        <ele>377</ele>
        <time>2021-01-17T15:47:17Z</time>
      </trkpt>
      <trkpt lat="44.63304" lon="4.46655">
        <ele>378</ele>
        <time>2021-01-17T15:47:35Z</time>
      </trkpt>
      <trkpt lat="44.63308" lon="4.46672">
        <ele>379</ele>
        <time>2021-01-17T15:47:52Z</time>
      </trkpt>
      <trkpt lat="44.63302" lon="4.46687">
        <ele>379</ele>
        <time>2021-01-17T15:48:08Z</time>
      </trkpt>
      <trkpt lat="44.63303" lon="4.46726">
        <ele>378</ele>
        <time>2021-01-17T15:48:45Z</time>
      </trkpt>
      <trkpt lat="44.63298" lon="4.46754">
        <ele>378</ele>
        <time>2021-01-17T15:49:13Z</time>
      </trkpt>
      <trkpt lat="44.63271" lon="4.46777">
        <ele>377</ele>
        <time>2021-01-17T15:49:55Z</time>
      </trkpt>
      <trkpt lat="44.63248" lon="4.46804">
        <ele>375</ele>
        <time>2021-01-17T15:50:35Z</time>
      </trkpt>
      <trkpt lat="44.63246" lon="4.46811">
        <ele>374</ele>
        <time>2021-01-17T15:50:42Z</time>
      </trkpt>
      <trkpt lat="44.63224" lon="4.46842">
        <ele>371</ele>
        <time>2021-01-17T15:51:23Z</time>
      </trkpt>
      <trkpt lat="44.63201" lon="4.46867">
        <ele>369</ele>
        <time>2021-01-17T15:52:02Z</time>
      </trkpt>
      <trkpt lat="44.63194" lon="4.46886">
        <ele>368</ele>
        <time>2021-01-17T15:52:23Z</time>
      </trkpt>
      <trkpt lat="44.63219" lon="4.46913">
        <ele>369</ele>
        <time>2021-01-17T15:53:05Z</time>
      </trkpt>
      <trkpt lat="44.63231" lon="4.4693">
        <ele>370</ele>
        <time>2021-01-17T15:53:27Z</time>
      </trkpt>
      <trkpt lat="44.63243" lon="4.46959">
        <ele>371</ele>
        <time>2021-01-17T15:53:59Z</time>
      </trkpt>
      <trkpt lat="44.63254" lon="4.46965">
        <ele>372</ele>
        <time>2021-01-17T15:54:15Z</time>
      </trkpt>
      <trkpt lat="44.63263" lon="4.46965">
        <ele>373</ele>
        <time>2021-01-17T15:54:27Z</time>
      </trkpt>
      <trkpt lat="44.63273" lon="4.46973">
        <ele>374</ele>
        <time>2021-01-17T15:54:42Z</time>
      </trkpt>
      <trkpt lat="44.63295" lon="4.47029">
        <ele>377</ele>
        <time>2021-01-17T15:55:43Z</time>
      </trkpt>
      <trkpt lat="44.63298" lon="4.47032">
        <ele>377</ele>
        <time>2021-01-17T15:55:48Z</time>
      </trkpt>
      <trkpt lat="44.63326" lon="4.47044">
        <ele>380</ele>
        <time>2021-01-17T15:56:27Z</time>
      </trkpt>
      <trkpt lat="44.63337" lon="4.47046">
        <ele>381</ele>
        <time>2021-01-17T15:56:42Z</time>
      </trkpt>
      <trkpt lat="44.63341" lon="4.47043">
        <ele>382</ele>
        <time>2021-01-17T15:56:48Z</time>
      </trkpt>
      <trkpt lat="44.63351" lon="4.47043">
        <ele>382</ele>
        <time>2021-01-17T15:57:01Z</time>
      </trkpt>
      <trkpt lat="44.63365" lon="4.47049">
        <ele>384</ele>
        <time>2021-01-17T15:57:21Z</time>
      </trkpt>
      <trkpt lat="44.63375" lon="4.47065">
        <ele>385</ele>
        <time>2021-01-17T15:57:41Z</time>
      </trkpt>
      <trkpt lat="44.63383" lon="4.47106">
        <ele>386</ele>
        <time>2021-01-17T15:58:21Z</time>
      </trkpt>
      <trkpt lat="44.63384" lon="4.47122">
        <ele>386</ele>
        <time>2021-01-17T15:58:37Z</time>
      </trkpt>
      <trkpt lat="44.63401" lon="4.47127">
        <ele>387</ele>
        <time>2021-01-17T15:59:00Z</time>
      </trkpt>
      <trkpt lat="44.63435" lon="4.47129">
        <ele>390</ele>
        <time>2021-01-17T15:59:45Z</time>
      </trkpt>
      <trkpt lat="44.63453" lon="4.47129">
        <ele>392</ele>
        <time>2021-01-17T16:00:09Z</time>
      </trkpt>
      <trkpt lat="44.63473" lon="4.47124">
        <ele>394</ele>
        <time>2021-01-17T16:00:36Z</time>
      </trkpt>
      <trkpt lat="44.63521" lon="4.47135">
        <ele>399</ele>
        <time>2021-01-17T16:01:41Z</time>
      </trkpt>
      <trkpt lat="44.63549" lon="4.47133">
        <ele>402</ele>
        <time>2021-01-17T16:02:19Z</time>
      </trkpt>
      <trkpt lat="44.63571" lon="4.47145">
        <ele>404</ele>
        <time>2021-01-17T16:02:50Z</time>
      </trkpt>
      <trkpt lat="44.63603" lon="4.47172">
        <ele>406</ele>
        <time>2021-01-17T16:03:40Z</time>
      </trkpt>
      <trkpt lat="44.63636" lon="4.47193">
        <ele>407</ele>
        <time>2021-01-17T16:04:28Z</time>
      </trkpt>
      <trkpt lat="44.63718" lon="4.47287">
        <ele>412</ele>
        <time>2021-01-17T16:06:50Z</time>
      </trkpt>
      <trkpt lat="44.63733" lon="4.4729">
        <ele>413</ele>
        <time>2021-01-17T16:07:10Z</time>
      </trkpt>
      <trkpt lat="44.63783" lon="4.4729">
        <ele>415</ele>
        <time>2021-01-17T16:08:16Z</time>
      </trkpt>
      <trkpt lat="44.63796" lon="4.47297">
        <ele>415</ele>
        <time>2021-01-17T16:08:35Z</time>
      </trkpt>
      <trkpt lat="44.638" lon="4.47338">
        <ele>417</ele>
        <time>2021-01-17T16:09:14Z</time>
      </trkpt>
      <trkpt lat="44.63792" lon="4.47378">
        <ele>421</ele>
        <time>2021-01-17T16:09:54Z</time>
      </trkpt>
      <trkpt lat="44.63793" lon="4.47394">
        <ele>422</ele>
        <time>2021-01-17T16:10:09Z</time>
      </trkpt>
      <trkpt lat="44.63787" lon="4.4746">
        <ele>430</ele>
        <time>2021-01-17T16:11:12Z</time>
      </trkpt>
      <trkpt lat="44.63792" lon="4.47467">
        <ele>431</ele>
        <time>2021-01-17T16:11:22Z</time>
      </trkpt>
      <trkpt lat="44.63834" lon="4.47486">
        <ele>434</ele>
        <time>2021-01-17T16:12:21Z</time>
      </trkpt>
      <trkpt lat="44.63859" lon="4.47501">
        <ele>434</ele>
        <time>2021-01-17T16:12:57Z</time>
      </trkpt>
      <trkpt lat="44.63894" lon="4.47527">
        <ele>435</ele>
        <time>2021-01-17T16:13:50Z</time>
      </trkpt>
      <trkpt lat="44.63913" lon="4.47543">
        <ele>437</ele>
        <time>2021-01-17T16:14:19Z</time>
      </trkpt>
      <trkpt lat="44.63946" lon="4.47589">
        <ele>442</ele>
        <time>2021-01-17T16:15:21Z</time>
      </trkpt>
      <trkpt lat="44.63987" lon="4.47564">
        <ele>435</ele>
        <time>2021-01-17T16:16:21Z</time>
      </trkpt>
      <trkpt lat="44.64039" lon="4.47561">
        <ele>435</ele>
        <time>2021-01-17T16:17:30Z</time>
      </trkpt>
      <trkpt lat="44.64058" lon="4.47574">
        <ele>436</ele>
        <time>2021-01-17T16:17:58Z</time>
      </trkpt>
      <trkpt lat="44.64064" lon="4.47601">
        <ele>439</ele>
        <time>2021-01-17T16:18:25Z</time>
      </trkpt>
      <trkpt lat="44.64067" lon="4.4763">
        <ele>442</ele>
        <time>2021-01-17T16:18:53Z</time>
      </trkpt>
      <trkpt lat="44.6407" lon="4.47636">
        <ele>443</ele>
        <time>2021-01-17T16:19:00Z</time>
      </trkpt>
      <trkpt lat="44.64086" lon="4.47626">
        <ele>442</ele>
        <time>2021-01-17T16:19:24Z</time>
      </trkpt>
      <trkpt lat="44.64099" lon="4.47596">
        <ele>440</ele>
        <time>2021-01-17T16:19:57Z</time>
      </trkpt>
      <trkpt lat="44.64109" lon="4.47556">
        <ele>438</ele>
        <time>2021-01-17T16:20:37Z</time>
      </trkpt>
      <trkpt lat="44.64115" lon="4.47512">
        <ele>435</ele>
        <time>2021-01-17T16:21:20Z</time>
      </trkpt>
      <trkpt lat="44.64134" lon="4.47493">
        <ele>436</ele>
        <time>2021-01-17T16:21:51Z</time>
      </trkpt>
      <trkpt lat="44.64159" lon="4.47495">
        <ele>439</ele>
        <time>2021-01-17T16:22:24Z</time>
      </trkpt>
      <trkpt lat="44.64257" lon="4.4754">
        <ele>448</ele>
        <time>2021-01-17T16:24:42Z</time>
      </trkpt>
      <trkpt lat="44.64298" lon="4.47583">
        <ele>451</ele>
        <time>2021-01-17T16:25:50Z</time>
      </trkpt>
      <trkpt lat="44.64323" lon="4.47637">
        <ele>454</ele>
        <time>2021-01-17T16:26:51Z</time>
      </trkpt>
      <trkpt lat="44.64334" lon="4.47671">
        <ele>457</ele>
        <time>2021-01-17T16:27:27Z</time>
      </trkpt>
      <trkpt lat="44.64362" lon="4.47724">
        <ele>461</ele>
        <time>2021-01-17T16:28:29Z</time>
      </trkpt>
    </trkseg>
  </trk>
</gpx>